Observation data for Boys Ranch on 11/09/2019      Previous  Date       Current Mesonet Observations  Soil Data  Daily Summary Page  Observations in Plain Language
KBY1 090600Z 25002KT M01/M02 A3027 RMK A01 T10081015  RH  096%=      5-min Rain = 0
KBY1 090601Z 27001KT M01/M02 A3027 RMK A01 T10091015  RH  096%=      5-min Rain = 0
KBY1 090602Z 32002KT M01/M02 A3028 RMK A01 T10101016  RH  096%=      5-min Rain = 0
KBY1 090603Z 34001KT M01/M02 A3028 RMK A01 T10101016  RH  096%=      5-min Rain = 0
KBY1 090604Z 34002KT M01/M02 A3028 RMK A01 T10111016  RH  096%=      5-min Rain = 0
KBY1 090605Z 36001KT M01/M02 A3028 RMK A01 T10111016  RH  096%=      5-min Rain = 0
KBY1 090606Z 02001KT M01/M02 A3028 RMK A01 T10111016  RH  096%=      5-min Rain = 0
KBY1 090607Z 02001KT M01/M02 A3028 RMK A01 T10111015  RH  097%=      5-min Rain = 0
KBY1 090608Z 04000KT M01/M02 A3028 RMK A01 T10101015  RH  097%=      5-min Rain = 0
KBY1 090609Z 34000KT M01/M02 A3028 RMK A01 T10101015  RH  097%=      5-min Rain = 0
KBY1 090610Z 30000KT M01/M02 A3028 RMK A01 T10111016  RH  097%=      5-min Rain = 0
KBY1 090611Z 30000KT M01/M02 A3028 RMK A01 T10121017  RH  096%=      5-min Rain = 0
KBY1 090612Z 31000KT M01/M02 A3028 RMK A01 T10121017  RH  096%=      5-min Rain = 0
KBY1 090613Z 35000KT M01/M02 A3028 RMK A01 T10131018  RH  096%=      5-min Rain = 0
KBY1 090614Z 01000KT M01/M02 A3028 RMK A01 T10131018  RH  096%=      5-min Rain = 0
KBY1 090615Z 00001KT M01/M02 A3028 RMK A01 T10131017  RH  097%=      5-min Rain = 0
KBY1 090616Z 00000KT M01/M02 A3028 RMK A01 T10131017  RH  097%=      5-min Rain = 0
KBY1 090617Z 07000KT M01/M02 A3028 RMK A01 T10131018  RH  097%=      5-min Rain = 0
KBY1 090618Z 06000KT M01/M02 A3028 RMK A01 T10141019  RH  097%=      5-min Rain = 0
KBY1 090619Z 08000KT M01/M02 A3028 RMK A01 T10141019  RH  096%=      5-min Rain = 0
KBY1 090620Z 00000KT M01/M02 A3028 RMK A01 T10141019  RH  097%=      5-min Rain = 0
KBY1 090621Z 00000KT M01/M02 A3028 RMK A01 T10141019  RH  097%=      5-min Rain = 0
KBY1 090622Z 00000KT M01/M02 A3028 RMK A01 T10131017  RH  097%=      5-min Rain = 0
KBY1 090623Z 00000KT M01/M01 A3028 RMK A01 T10101013  RH  098%=      5-min Rain = 0
KBY1 090624Z 28000KT M01/M01 A3028 RMK A01 T10071009  RH  098%=      5-min Rain = 0
KBY1 090625Z 28000KT M00/M01 A3028 RMK A01 T10041006  RH  099%=      5-min Rain = 0
KBY1 090626Z 30001KT M00/M00 A3028 RMK A01 T10031004  RH  099%=      5-min Rain = 0
KBY1 090627Z 31001KT M00/M00 A3028 RMK A01 T10031004  RH  099%=      5-min Rain = 0
KBY1 090628Z 30001KT M00/M00 A3028 RMK A01 T10031004  RH  099%=      5-min Rain = 0
KBY1 090629Z 31001KT M00/M01 A3028 RMK A01 T10031005  RH  099%=      5-min Rain = 0
KBY1 090630Z 31000KT M00/M01 A3028 RMK A01 T10031005  RH  099%=      5-min Rain = 0
KBY1 090631Z 30000KT M00/M00 A3028 RMK A01 T10031004  RH  099%=      5-min Rain = 0
KBY1 090632Z 30000KT M00/M00 A3028 RMK A01 T10021004  RH  099%=      5-min Rain = 0
KBY1 090633Z 00000KT M00/M01 A3028 RMK A01 T10031005  RH  099%=      5-min Rain = 0
KBY1 090634Z 25001KT M00/M01 A3028 RMK A01 T10041006  RH  098%=      5-min Rain = 0
KBY1 090635Z 25002KT M01/M01 A3028 RMK A01 T10051008  RH  098%=      5-min Rain = 0
KBY1 090636Z 24002KT M01/M01 A3028 RMK A01 T10081012  RH  098%=      5-min Rain = 0
KBY1 090637Z 24002KT M01/M01 A3028 RMK A01 T10101014  RH  097%=      5-min Rain = 0
KBY1 090638Z 23002KT M01/M01 A3028 RMK A01 T10101014  RH  097%=      5-min Rain = 0
KBY1 090639Z 23002KT M01/M01 A3028 RMK A01 T10111014  RH  097%=      5-min Rain = 0
KBY1 090640Z 23002KT M01/M01 A3028 RMK A01 T10111014  RH  098%=      5-min Rain = 0
KBY1 090641Z 24001KT M01/M01 A3028 RMK A01 T10111014  RH  098%=      5-min Rain = 0
KBY1 090642Z 23002KT M01/M01 A3028 RMK A01 T10111014  RH  098%=      5-min Rain = 0
KBY1 090643Z 22002KT M01/M01 A3028 RMK A01 T10111014  RH  098%=      5-min Rain = 0
KBY1 090644Z 22001KT M01/M02 A3028 RMK A01 T10121015  RH  098%=      5-min Rain = 0
KBY1 090645Z 23001KT M01/M02 A3028 RMK A01 T10121016  RH  098%=      5-min Rain = 0
KBY1 090646Z 23001KT M01/M02 A3028 RMK A01 T10131016  RH  098%=      5-min Rain = 0
KBY1 090647Z 25001KT M01/M02 A3028 RMK A01 T10131017  RH  098%=      5-min Rain = 0
KBY1 090648Z 27001KT M01/M02 A3028 RMK A01 T10131017  RH  098%=      5-min Rain = 0
KBY1 090649Z 28001KT M01/M02 A3028 RMK A01 T10131017  RH  098%=      5-min Rain = 0
KBY1 090650Z 28002KT M01/M02 A3028 RMK A01 T10141017  RH  098%=      5-min Rain = 0
KBY1 090651Z 28003KT M01/M02 A3028 RMK A01 T10141017  RH  098%=      5-min Rain = 0
KBY1 090652Z 28003KT M01/M02 A3028 RMK A01 T10141017  RH  098%=      5-min Rain = 0
KBY1 090653Z 28003KT M01/M02 A3028 RMK A01 T10141017  RH  098%=      5-min Rain = 0
KBY1 090654Z 28003KT M01/M02 A3028 RMK A01 T10141017  RH  098%=      5-min Rain = 0
KBY1 090655Z 29002KT M01/M02 A3028 RMK A01 T10131016  RH  098%=      5-min Rain = 0
KBY1 090656Z 29002KT M01/M02 A3028 RMK A01 T10131016  RH  098%=      5-min Rain = 0
KBY1 090657Z 33001KT M01/M02 A3028 RMK A01 T10141016  RH  098%=      5-min Rain = 0
KBY1 090658Z 33001KT M01/M02 A3028 RMK A01 T10141017  RH  098%=      5-min Rain = 0
KBY1 090659Z 34000KT M01/M02 A3028 RMK A01 T10141017  RH  098%=      5-min Rain = 0
KBY1 090700Z 31001KT M02/M02 A3028 RMK A01 T10151018  RH  098%=      5-min Rain = 0
KBY1 090701Z 31001KT M02/M02 A3028 RMK A01 T10151018  RH  098%=      5-min Rain = 0
KBY1 090702Z 30002KT M02/M02 A3028 RMK A01 T10151018  RH  098%=      5-min Rain = 0
KBY1 090703Z 29002KT M01/M02 A3028 RMK A01 T10141017  RH  098%=      5-min Rain = 0
KBY1 090704Z 30002KT M01/M02 A3028 RMK A01 T10131015  RH  098%=      5-min Rain = 0
KBY1 090705Z 29002KT M01/M01 A3028 RMK A01 T10111013  RH  099%=      5-min Rain = 0
KBY1 090706Z 29002KT M01/M01 A3028 RMK A01 T10071008  RH  099%=      5-min Rain = 0
KBY1 090707Z 29002KT M01/M01 A3028 RMK A01 T10051005  RH  100%=      5-min Rain = 0
KBY1 090708Z 28002KT M00/M00 A3028 RMK A01 T10021003  RH  100%=      5-min Rain = 0
KBY1 090709Z 29002KT 00/00 A3028 RMK A01 T00010000  RH  100%=      5-min Rain = 0
KBY1 090710Z 28003KT 00/00 A3028 RMK A01 T00020002  RH  100%=      5-min Rain = 0
KBY1 090711Z 28003KT 01/01 A3028 RMK A01 T00060006  RH  100%=      5-min Rain = 0
KBY1 090712Z 29003KT 01/01 A3028 RMK A01 T00090009  RH  100%=      5-min Rain = 0
KBY1 090713Z 28003KT 01/01 A3027 RMK A01 T00110011  RH  100%=      5-min Rain = 0
KBY1 090714Z 28003KT 01/01 A3027 RMK A01 T00120012  RH  100%=      5-min Rain = 0
KBY1 090715Z 28003KT 01/01 A3027 RMK A01 T00130012  RH  100%=      5-min Rain = 0
KBY1 090719Z 27001KT 01/01 A3027 RMK A01 T00080007  RH  099%=      5-min Rain = 0
KBY1 090720Z 00000KT 01/00 A3028 RMK A01 T00050003  RH  099%=      5-min Rain = 0
KBY1 090721Z 00000KT 00/00 A3028 RMK A01 T000300-0  RH  098%=      5-min Rain = 0
KBY1 090722Z 00000KT 00/00 A3028 RMK A01 T00-000-4  RH  097%=      5-min Rain = 0
KBY1 090723Z 29000KT M00/M01 A3027 RMK A01 T10021007  RH  097%=      5-min Rain = 0
KBY1 090724Z 30001KT M00/M01 A3027 RMK A01 T10041009  RH  096%=      5-min Rain = 0
KBY1 090725Z 30001KT M01/M01 A3027 RMK A01 T10051011  RH  096%=      5-min Rain = 0
KBY1 090726Z 28002KT M01/M01 A3027 RMK A01 T10071014  RH  095%=      5-min Rain = 0
KBY1 090727Z 28003KT M01/M02 A3027 RMK A01 T10091016  RH  095%=      5-min Rain = 0
KBY1 090728Z 28002KT M01/M02 A3027 RMK A01 T10101017  RH  095%=      5-min Rain = 0
KBY1 090729Z 28001KT M01/M02 A3027 RMK A01 T10111018  RH  095%=      5-min Rain = 0
KBY1 090730Z 28001KT M01/M02 A3027 RMK A01 T10131019  RH  095%=      5-min Rain = 0
KBY1 090731Z 27001KT M01/M02 A3027 RMK A01 T10141020  RH  096%=      5-min Rain = 0
KBY1 090732Z 31000KT M02/M02 A3027 RMK A01 T10151021  RH  096%=      5-min Rain = 0
KBY1 090733Z 31001KT M02/M02 A3027 RMK A01 T10151021  RH  096%=      5-min Rain = 0
KBY1 090734Z 32001KT M02/M02 A3027 RMK A01 T10161021  RH  096%=      5-min Rain = 0
KBY1 090735Z 30002KT M02/M02 A3027 RMK A01 T10151020  RH  097%=      5-min Rain = 0
KBY1 090736Z 29003KT M01/M02 A3027 RMK A01 T10131016  RH  097%=      5-min Rain = 0
KBY1 090737Z 29004KT M01/M01 A3027 RMK A01 T10081010  RH  098%=      5-min Rain = 0
KBY1 090738Z 29003KT M00/M00 A3027 RMK A01 T10021003  RH  100%=      5-min Rain = 0
KBY1 090739Z 29003KT 00/00 A3027 RMK A01 T00010001  RH  100%=      5-min Rain = 0
KBY1 090740Z 30002KT 00/00 A3027 RMK A01 T00010001  RH  100%=      5-min Rain = 0
KBY1 090741Z 30003KT 00/00 A3027 RMK A01 T00020002  RH  100%=      5-min Rain = 0
KBY1 090742Z 31002KT 00/00 A3027 RMK A01 T00030003  RH  100%=      5-min Rain = 0
KBY1 090743Z 30001KT 00/00 A3027 RMK A01 T00030003  RH  100%=      5-min Rain = 0
KBY1 090744Z 30001KT 00/00 A3027 RMK A01 T00030003  RH  100%=      5-min Rain = 0
KBY1 090745Z 29001KT 00/00 A3027 RMK A01 T00040003  RH  100%=      5-min Rain = 0
KBY1 090746Z 30001KT 00/00 A3027 RMK A01 T00040003  RH  100%=      5-min Rain = 0
KBY1 090747Z 31002KT 00/00 A3027 RMK A01 T00030002  RH  099%=      5-min Rain = 0
KBY1 090748Z 31002KT 00/00 A3027 RMK A01 T00020001  RH  099%=      5-min Rain = 0
KBY1 090749Z 31002KT 00/00 A3027 RMK A01 T00020001  RH  099%=      5-min Rain = 0
KBY1 090750Z 31002KT 00/00 A3027 RMK A01 T00020001  RH  099%=      5-min Rain = 0
KBY1 090751Z 30002KT 00/00 A3027 RMK A01 T00020001  RH  099%=      5-min Rain = 0
KBY1 090752Z 29001KT 00/00 A3027 RMK A01 T00020000  RH  099%=      5-min Rain = 0
KBY1 090753Z 28002KT 00/00 A3027 RMK A01 T00020000  RH  099%=      5-min Rain = 0
KBY1 090754Z 30002KT 00/00 A3027 RMK A01 T00020001  RH  099%=      5-min Rain = 0
KBY1 090755Z 29001KT 00/00 A3027 RMK A01 T00020001  RH  099%=      5-min Rain = 0
KBY1 090756Z 31001KT 00/00 A3027 RMK A01 T00020000  RH  099%=      5-min Rain = 0
KBY1 090757Z 27002KT 00/00 A3027 RMK A01 T00020001  RH  099%=      5-min Rain = 0
KBY1 090758Z 28002KT 00/00 A3027 RMK A01 T00040003  RH  099%=      5-min Rain = 0
KBY1 090759Z 30001KT 01/01 A3027 RMK A01 T00060006  RH  100%=      5-min Rain = 0
KBY1 090800Z 27001KT 01/01 A3027 RMK A01 T00060005  RH  099%=      5-min Rain = 0
KBY1 090801Z 29002KT 01/01 A3027 RMK A01 T00060005  RH  099%=      5-min Rain = 0
KBY1 090802Z 29002KT 01/01 A3027 RMK A01 T00060005  RH  099%=      5-min Rain = 0
KBY1 090803Z 28003KT 01/01 A3027 RMK A01 T00070006  RH  099%=      5-min Rain = 0
KBY1 090804Z 29003KT 01/01 A3027 RMK A01 T00080007  RH  099%=      5-min Rain = 0
KBY1 090805Z 28004KT 01/01 A3026 RMK A01 T00090009  RH  100%=      5-min Rain = 0
KBY1 090806Z 28004KT 01/01 A3026 RMK A01 T00100010  RH  100%=      5-min Rain = 0
KBY1 090807Z 28004KT 01/01 A3026 RMK A01 T00110010  RH  099%=      5-min Rain = 0
KBY1 090808Z 27003KT 01/01 A3026 RMK A01 T00110010  RH  099%=      5-min Rain = 0
KBY1 090809Z 28003KT 01/01 A3026 RMK A01 T00110010  RH  099%=      5-min Rain = 0
KBY1 090810Z 28003KT 01/01 A3026 RMK A01 T00110009  RH  099%=      5-min Rain = 0
KBY1 090811Z 28003KT 01/01 A3026 RMK A01 T00100007  RH  098%=      5-min Rain = 0
KBY1 090812Z 28003KT 01/01 A3026 RMK A01 T00090007  RH  098%=      5-min Rain = 0
KBY1 090813Z 29004KT 01/01 A3026 RMK A01 T00100007  RH  098%=      5-min Rain = 0
KBY1 090814Z 28001KT 01/01 A3026 RMK A01 T00100007  RH  098%=      5-min Rain = 0
KBY1 090815Z 29000KT 01/01 A3026 RMK A01 T00090007  RH  098%=      5-min Rain = 0
KBY1 090816Z 29000KT 01/01 A3026 RMK A01 T00090006  RH  098%=      5-min Rain = 0
KBY1 090817Z 00000KT 01/01 A3026 RMK A01 T00090006  RH  098%=      5-min Rain = 0
KBY1 090818Z 27000KT 01/01 A3026 RMK A01 T00090005  RH  097%=      5-min Rain = 0
KBY1 090819Z 27002KT 01/00 A3026 RMK A01 T00080004  RH  097%=      5-min Rain = 0
KBY1 090820Z 27002KT 01/00 A3026 RMK A01 T00070002  RH  097%=      5-min Rain = 0
KBY1 090821Z 27004KT 01/00 A3026 RMK A01 T00060001  RH  097%=      5-min Rain = 0
KBY1 090822Z 28004KT 01/00 A3026 RMK A01 T00060002  RH  097%=      5-min Rain = 0
KBY1 090823Z 27004KT 01/00 A3026 RMK A01 T00070003  RH  097%=      5-min Rain = 0
KBY1 090824Z 28004KT 01/00 A3026 RMK A01 T00070002  RH  097%=      5-min Rain = 0
KBY1 090825Z 27004KT 01/00 A3026 RMK A01 T00070002  RH  097%=      5-min Rain = 0
KBY1 090826Z 26004KT 01/00 A3026 RMK A01 T00060001  RH  097%=      5-min Rain = 0
KBY1 090827Z 27005KT 01/00 A3026 RMK A01 T00060001  RH  097%=      5-min Rain = 0
KBY1 090828Z 27005KT 01/00 A3026 RMK A01 T00060001  RH  097%=      5-min Rain = 0
KBY1 090829Z 27004KT 01/00 A3026 RMK A01 T000500-0  RH  096%=      5-min Rain = 0
KBY1 090830Z 27004KT 00/M00 A3026 RMK A01 T00041001  RH  096%=      5-min Rain = 0
KBY1 090831Z 27003KT 00/M00 A3026 RMK A01 T00031002  RH  096%=      5-min Rain = 0
KBY1 090832Z 26003KT 00/M00 A3026 RMK A01 T00031003  RH  096%=      5-min Rain = 0
KBY1 090833Z 26003KT 00/M00 A3026 RMK A01 T00031003  RH  096%=      5-min Rain = 0
KBY1 090834Z 27003KT 00/M00 A3026 RMK A01 T00031003  RH  096%=      5-min Rain = 0
KBY1 090835Z 26003KT 00/M00 A3026 RMK A01 T00031002  RH  097%=      5-min Rain = 0
KBY1 090836Z 27003KT 00/M00 A3026 RMK A01 T00021003  RH  097%=      5-min Rain = 0
KBY1 090837Z 27001KT 00/01 A3026 RMK A01 T000000-6  RH  096%=      5-min Rain = 0
KBY1 090838Z 24001KT M00/M01 A3026 RMK A01 T10041011  RH  095%=      5-min Rain = 0
KBY1 090839Z 26001KT M01/M02 A3026 RMK A01 T10071015  RH  094%=      5-min Rain = 0
KBY1 090840Z 27001KT M01/M02 A3026 RMK A01 T10081017  RH  094%=      5-min Rain = 0
KBY1 090841Z 27003KT M01/M02 A3026 RMK A01 T10101019  RH  094%=      5-min Rain = 0
KBY1 090842Z 27004KT M01/M02 A3026 RMK A01 T10101017  RH  095%=      5-min Rain = 0
KBY1 090843Z 26005KT M01/M01 A3026 RMK A01 T10061011  RH  097%=      5-min Rain = 0
KBY1 090844Z 27006KT M00/M01 A3026 RMK A01 T10021006  RH  098%=      5-min Rain = 0
KBY1 090845Z 26006KT 00/00 A3026 RMK A01 T00-000-3  RH  098%=      5-min Rain = 0
KBY1 090846Z 27007KT 00/M00 A3026 RMK A01 T00011002  RH  098%=      5-min Rain = 0
KBY1 090847Z 26007KT 00/M00 A3026 RMK A01 T00021002  RH  098%=      5-min Rain = 0
KBY1 090848Z 27006KT 00/M00 A3026 RMK A01 T00021002  RH  097%=      5-min Rain = 0
KBY1 090849Z 27006KT 00/M00 A3026 RMK A01 T00021003  RH  097%=      5-min Rain = 0
KBY1 090850Z 27006KT 00/M00 A3026 RMK A01 T00021003  RH  096%=      5-min Rain = 0
KBY1 090851Z 27006KT 00/M00 A3026 RMK A01 T00021003  RH  096%=      5-min Rain = 0
KBY1 090852Z 27006KT 00/M00 A3026 RMK A01 T00021004  RH  096%=      5-min Rain = 0
KBY1 090853Z 27005KT 00/M00 A3026 RMK A01 T00021004  RH  096%=      5-min Rain = 0
KBY1 090854Z 27004KT 00/M00 A3026 RMK A01 T00031003  RH  096%=      5-min Rain = 0
KBY1 090855Z 27004KT 00/M00 A3026 RMK A01 T00041003  RH  095%=      5-min Rain = 0
KBY1 090856Z 27006KT 00/M00 A3026 RMK A01 T00041003  RH  095%=      5-min Rain = 0
KBY1 090857Z 27005KT 00/M00 A3026 RMK A01 T00041003  RH  095%=      5-min Rain = 0
KBY1 090858Z 27005KT 00/M00 A3025 RMK A01 T00041003  RH  095%=      5-min Rain = 0
KBY1 090859Z 28005KT 01/M00 A3025 RMK A01 T00051003  RH  095%=      5-min Rain = 0
KBY1 090900Z 27006KT 00/M00 A3025 RMK A01 T00041004  RH  094%=      5-min Rain = 0
KBY1 090901Z 27006KT 01/M00 A3025 RMK A01 T00051003  RH  094%=      5-min Rain = 0
KBY1 090902Z 27005KT 01/M00 A3025 RMK A01 T00051003  RH  094%=      5-min Rain = 0
KBY1 090903Z 27007KT 01/M00 A3025 RMK A01 T00051003  RH  094%=      5-min Rain = 0
KBY1 090904Z 27007KT 01/M00 A3025 RMK A01 T00051003  RH  094%=      5-min Rain = 0
KBY1 090905Z 27006KT 01/M00 A3025 RMK A01 T00051003  RH  094%=      5-min Rain = 0
KBY1 090906Z 27005KT 01/M00 A3025 RMK A01 T00061002  RH  094%=      5-min Rain = 0
KBY1 090907Z 28004KT 01/M00 A3025 RMK A01 T00061002  RH  094%=      5-min Rain = 0
KBY1 090908Z 27004KT 01/M00 A3025 RMK A01 T00061002  RH  094%=      5-min Rain = 0
KBY1 090909Z 28003KT 01/M00 A3025 RMK A01 T00051003  RH  094%=      5-min Rain = 0
KBY1 090910Z 29004KT 01/M00 A3025 RMK A01 T00051004  RH  094%=      5-min Rain = 0
KBY1 090911Z 29004KT 00/M00 A3025 RMK A01 T00041004  RH  094%=      5-min Rain = 0
KBY1 090912Z 29004KT 01/M00 A3026 RMK A01 T00051004  RH  094%=      5-min Rain = 0
KBY1 090913Z 29003KT 01/M00 A3026 RMK A01 T00051003  RH  094%=      5-min Rain = 0
KBY1 090914Z 29004KT 00/M00 A3026 RMK A01 T00041004  RH  094%=      5-min Rain = 0
KBY1 090915Z 29004KT 00/M00 A3025 RMK A01 T00041004  RH  095%=      5-min Rain = 0
KBY1 090916Z 28003KT 00/M00 A3025 RMK A01 T00041003  RH  095%=      5-min Rain = 0
KBY1 090917Z 28004KT 00/M00 A3025 RMK A01 T00041003  RH  095%=      5-min Rain = 0
KBY1 090918Z 27006KT 00/M00 A3025 RMK A01 T00041003  RH  095%=      5-min Rain = 0
KBY1 090919Z 28005KT 01/M00 A3025 RMK A01 T00051002  RH  095%=      5-min Rain = 0
KBY1 090920Z 27005KT 00/M00 A3025 RMK A01 T00041002  RH  095%=      5-min Rain = 0
KBY1 090921Z 28006KT 01/M00 A3025 RMK A01 T00051002  RH  095%=      5-min Rain = 0
KBY1 090922Z 28004KT 01/M00 A3025 RMK A01 T00051001  RH  096%=      5-min Rain = 0
KBY1 090923Z 29005KT 01/00 A3025 RMK A01 T00060000  RH  096%=      5-min Rain = 0
KBY1 090924Z 29005KT 01/00 A3025 RMK A01 T000600-0  RH  096%=      5-min Rain = 0
KBY1 090925Z 28005KT 01/M00 A3025 RMK A01 T00061001  RH  095%=      5-min Rain = 0
KBY1 090926Z 28004KT 01/M00 A3025 RMK A01 T00061001  RH  095%=      5-min Rain = 0
KBY1 090927Z 28005KT 01/M00 A3025 RMK A01 T00051002  RH  095%=      5-min Rain = 0
KBY1 090928Z 28005KT 01/M00 A3025 RMK A01 T00051003  RH  094%=      5-min Rain = 0
KBY1 090929Z 28005KT 00/M00 A3025 RMK A01 T00041004  RH  094%=      5-min Rain = 0
KBY1 090930Z 29004KT 00/M01 A3025 RMK A01 T00041005  RH  094%=      5-min Rain = 0
KBY1 090931Z 28005KT 00/M01 A3025 RMK A01 T00031005  RH  094%=      5-min Rain = 0
KBY1 090932Z 29005KT 00/M01 A3025 RMK A01 T00031006  RH  094%=      5-min Rain = 0
KBY1 090933Z 28005KT 00/M01 A3025 RMK A01 T00031006  RH  094%=      5-min Rain = 0
KBY1 090934Z 29005KT 00/M01 A3025 RMK A01 T00031006  RH  094%=      5-min Rain = 0
KBY1 090935Z 28005KT 00/M01 A3025 RMK A01 T00031006  RH  094%=      5-min Rain = 0
KBY1 090936Z 29005KT 00/M01 A3025 RMK A01 T00031006  RH  093%=      5-min Rain = 0
KBY1 090937Z 29006KT 00/M01 A3025 RMK A01 T00031007  RH  093%=      5-min Rain = 0
KBY1 090938Z 29005KT 00/M01 A3025 RMK A01 T00031007  RH  093%=      5-min Rain = 0
KBY1 090939Z 30004KT 00/M01 A3025 RMK A01 T00031007  RH  093%=      5-min Rain = 0
KBY1 090940Z 30005KT 00/M01 A3025 RMK A01 T00021008  RH  093%=      5-min Rain = 0
KBY1 090941Z 29005KT 00/M01 A3025 RMK A01 T00011009  RH  093%=      5-min Rain = 0
KBY1 090942Z 29004KT 00/M01 A3025 RMK A01 T00011010  RH  093%=      5-min Rain = 0
KBY1 090943Z 29005KT 00/M01 A3025 RMK A01 T00011010  RH  093%=      5-min Rain = 0
KBY1 090944Z 29006KT 00/01 A3025 RMK A01 T00000-10  RH  093%=      5-min Rain = 0
KBY1 090945Z 29005KT 00/01 A3025 RMK A01 T00-00-10  RH  093%=      5-min Rain = 0
KBY1 090946Z 29006KT 00/01 A3025 RMK A01 T000000-9  RH  094%=      5-min Rain = 0
KBY1 090947Z 28005KT 00/M01 A3025 RMK A01 T00011007  RH  094%=      5-min Rain = 0
KBY1 090948Z 29006KT 00/M01 A3025 RMK A01 T00011007  RH  094%=      5-min Rain = 0
KBY1 090949Z 28005KT 00/M01 A3025 RMK A01 T00011007  RH  094%=      5-min Rain = 0
KBY1 090950Z 29006KT 00/M01 A3025 RMK A01 T00011006  RH  095%=      5-min Rain = 0
KBY1 090951Z 29006KT 00/M01 A3025 RMK A01 T00011006  RH  095%=      5-min Rain = 0
KBY1 090952Z 29006KT 00/M01 A3025 RMK A01 T00011006  RH  095%=      5-min Rain = 0
KBY1 090953Z 29006KT 00/M01 A3025 RMK A01 T00011006  RH  095%=      5-min Rain = 0
KBY1 090954Z 29006KT 00/M01 A3025 RMK A01 T00011006  RH  095%=      5-min Rain = 0
KBY1 090955Z 29006KT 00/M01 A3025 RMK A01 T00011006  RH  095%=      5-min Rain = 0
KBY1 090956Z 29005KT 00/M01 A3025 RMK A01 T00011006  RH  095%=      5-min Rain = 0
KBY1 090957Z 29005KT 00/M01 A3025 RMK A01 T00011006  RH  095%=      5-min Rain = 0
KBY1 090958Z 29006KT 00/01 A3025 RMK A01 T000000-6  RH  095%=      5-min Rain = 0
KBY1 090959Z 29006KT 00/01 A3025 RMK A01 T00-000-6  RH  096%=      5-min Rain = 0
KBY1 091000Z 29007KT 00/01 A3025 RMK A01 T00-000-6  RH  096%=      5-min Rain = 0
KBY1 091001Z 29007KT 00/01 A3025 RMK A01 T00-000-6  RH  096%=      5-min Rain = 0
KBY1 091002Z 29008KT 00/01 A3025 RMK A01 T000000-5  RH  096%=      5-min Rain = 0
KBY1 091003Z 29007KT 00/M01 A3025 RMK A01 T00011005  RH  096%=      5-min Rain = 0
KBY1 091004Z 28006KT 00/M01 A3025 RMK A01 T00011005  RH  096%=      5-min Rain = 0
KBY1 091005Z 29007KT 00/M00 A3025 RMK A01 T00011004  RH  096%=      5-min Rain = 0
KBY1 091006Z 28007KT 00/M00 A3025 RMK A01 T00011004  RH  096%=      5-min Rain = 0
KBY1 091007Z 28007KT 00/M00 A3025 RMK A01 T00021004  RH  096%=      5-min Rain = 0
KBY1 091008Z 28008KT 00/M00 A3024 RMK A01 T00021004  RH  096%=      5-min Rain = 0
KBY1 091009Z 29008KT 00/M00 A3024 RMK A01 T00021003  RH  096%=      5-min Rain = 0
KBY1 091010Z 29007KT 00/M00 A3025 RMK A01 T00031003  RH  096%=      5-min Rain = 0
KBY1 091011Z 29008KT 00/M00 A3025 RMK A01 T00031003  RH  096%=      5-min Rain = 0
KBY1 091012Z 28008KT 00/M00 A3025 RMK A01 T00031003  RH  096%=      5-min Rain = 0
KBY1 091013Z 29008KT 00/M00 A3024 RMK A01 T00031003  RH  095%=      5-min Rain = 0
KBY1 091014Z 29009KT 00/M00 A3024 RMK A01 T00031003  RH  095%=      5-min Rain = 0
KBY1 091015Z 29008KT 00/M00 A3024 RMK A01 T00031004  RH  095%=      5-min Rain = 0
KBY1 091016Z 29008KT 00/M01 A3024 RMK A01 T00031005  RH  095%=      5-min Rain = 0
KBY1 091017Z 29008KT 00/M01 A3024 RMK A01 T00031005  RH  095%=      5-min Rain = 0
KBY1 091018Z 29008KT 00/M01 A3024 RMK A01 T00031005  RH  094%=      5-min Rain = 0
KBY1 091019Z 29008KT 00/M01 A3024 RMK A01 T00021006  RH  094%=      5-min Rain = 0
KBY1 091020Z 29006KT 00/M01 A3024 RMK A01 T00021006  RH  094%=      5-min Rain = 0
KBY1 091021Z 29008KT 00/M01 A3024 RMK A01 T00021006  RH  094%=      5-min Rain = 0
KBY1 091022Z 29007KT 00/M01 A3024 RMK A01 T00021006  RH  094%=      5-min Rain = 0
KBY1 091023Z 28007KT 00/M01 A3024 RMK A01 T00021007  RH  094%=      5-min Rain = 0
KBY1 091024Z 28006KT 00/M01 A3024 RMK A01 T00011008  RH  094%=      5-min Rain = 0
KBY1 091025Z 28005KT 00/01 A3024 RMK A01 T00-000-9  RH  094%=      5-min Rain = 0
KBY1 091026Z 28006KT 00/01 A3024 RMK A01 T00-000-9  RH  094%=      5-min Rain = 0
KBY1 091027Z 28005KT M00/M01 A3024 RMK A01 T10011009  RH  094%=      5-min Rain = 0
KBY1 091028Z 29005KT M00/M01 A3024 RMK A01 T10021009  RH  095%=      5-min Rain = 0
KBY1 091029Z 28005KT M00/M01 A3024 RMK A01 T10021010  RH  095%=      5-min Rain = 0
KBY1 091030Z 28004KT M00/M01 A3024 RMK A01 T10031010  RH  095%=      5-min Rain = 0
KBY1 091031Z 28006KT M00/M01 A3024 RMK A01 T10031010  RH  095%=      5-min Rain = 0
KBY1 091032Z 28004KT M00/M01 A3024 RMK A01 T10031010  RH  095%=      5-min Rain = 0
KBY1 091033Z 28004KT M00/M01 A3024 RMK A01 T10031010  RH  096%=      5-min Rain = 0
KBY1 091034Z 28004KT M00/M01 A3024 RMK A01 T10031009  RH  096%=      5-min Rain = 0
KBY1 091035Z 29004KT M00/M01 A3024 RMK A01 T10031009  RH  096%=      5-min Rain = 0
KBY1 091036Z 28004KT M00/M01 A3024 RMK A01 T10031009  RH  096%=      5-min Rain = 0
KBY1 091037Z 28004KT M00/M01 A3024 RMK A01 T10031009  RH  096%=      5-min Rain = 0
KBY1 091038Z 29004KT M00/M01 A3024 RMK A01 T10031009  RH  096%=      5-min Rain = 0
KBY1 091039Z 28005KT M00/M01 A3024 RMK A01 T10041010  RH  096%=      5-min Rain = 0
KBY1 091040Z 27003KT M01/M01 A3024 RMK A01 T10051011  RH  096%=      5-min Rain = 0
KBY1 091041Z 28004KT M01/M01 A3025 RMK A01 T10051011  RH  096%=      5-min Rain = 0
KBY1 091042Z 28004KT M01/M01 A3025 RMK A01 T10051011  RH  096%=      5-min Rain = 0
KBY1 091043Z 29003KT M01/M01 A3025 RMK A01 T10051011  RH  096%=      5-min Rain = 0
KBY1 091044Z 29004KT M01/M01 A3025 RMK A01 T10051011  RH  096%=      5-min Rain = 0
KBY1 091045Z 29005KT M01/M01 A3025 RMK A01 T10051010  RH  096%=      5-min Rain = 0
KBY1 091046Z 29005KT M01/M01 A3025 RMK A01 T10051010  RH  097%=      5-min Rain = 0
KBY1 091047Z 29005KT M01/M01 A3025 RMK A01 T10051009  RH  097%=      5-min Rain = 0
KBY1 091048Z 28004KT M01/M01 A3025 RMK A01 T10051010  RH  097%=      5-min Rain = 0
KBY1 091049Z 27004KT M01/M01 A3024 RMK A01 T10051010  RH  096%=      5-min Rain = 0
KBY1 091050Z 27003KT M01/M01 A3024 RMK A01 T10051010  RH  096%=      5-min Rain = 0
KBY1 091051Z 27005KT M01/M01 A3024 RMK A01 T10051010  RH  096%=      5-min Rain = 0
KBY1 091052Z 27005KT M01/M01 A3024 RMK A01 T10051010  RH  096%=      5-min Rain = 0
KBY1 091053Z 26006KT M01/M01 A3024 RMK A01 T10051010  RH  096%=      5-min Rain = 0
KBY1 091054Z 26005KT M01/M01 A3024 RMK A01 T10051010  RH  096%=      5-min Rain = 0
KBY1 091055Z 27005KT M01/M01 A3024 RMK A01 T10051010  RH  096%=      5-min Rain = 0
KBY1 091056Z 27005KT M01/M01 A3024 RMK A01 T10051010  RH  096%=      5-min Rain = 0
KBY1 091057Z 27005KT M01/M01 A3024 RMK A01 T10051011  RH  096%=      5-min Rain = 0
KBY1 091058Z 26004KT M01/M01 A3024 RMK A01 T10051011  RH  096%=      5-min Rain = 0
KBY1 091059Z 26003KT M01/M01 A3024 RMK A01 T10051011  RH  096%=      5-min Rain = 0
KBY1 091100Z 26004KT M01/M01 A3025 RMK A01 T10061011  RH  096%=      5-min Rain = 0
KBY1 091101Z 27004KT M01/M01 A3025 RMK A01 T10061011  RH  096%=      5-min Rain = 0
KBY1 091102Z 27004KT M01/M01 A3025 RMK A01 T10061011  RH  096%=      5-min Rain = 0
KBY1 091103Z 27005KT M01/M01 A3025 RMK A01 T10061011  RH  097%=      5-min Rain = 0
KBY1 091104Z 27004KT M01/M01 A3025 RMK A01 T10061011  RH  097%=      5-min Rain = 0
KBY1 091105Z 27003KT M01/M01 A3025 RMK A01 T10061010  RH  097%=      5-min Rain = 0
KBY1 091106Z 28003KT M01/M01 A3025 RMK A01 T10061010  RH  097%=      5-min Rain = 0
KBY1 091107Z 28003KT M01/M01 A3024 RMK A01 T10061011  RH  097%=      5-min Rain = 0
KBY1 091108Z 29003KT M01/M01 A3024 RMK A01 T10061011  RH  097%=      5-min Rain = 0
KBY1 091109Z 29002KT M01/M01 A3025 RMK A01 T10061011  RH  097%=      5-min Rain = 0
KBY1 091110Z 28003KT M01/M01 A3025 RMK A01 T10061010  RH  097%=      5-min Rain = 0
KBY1 091111Z 28003KT M01/M01 A3025 RMK A01 T10051010  RH  097%=      5-min Rain = 0
KBY1 091112Z 28003KT M01/M01 A3025 RMK A01 T10051010  RH  097%=      5-min Rain = 0
KBY1 091113Z 28002KT M01/M01 A3024 RMK A01 T10051010  RH  097%=      5-min Rain = 0
KBY1 091114Z 27004KT M01/M01 A3024 RMK A01 T10051010  RH  097%=      5-min Rain = 0
KBY1 091115Z 27005KT M01/M01 A3024 RMK A01 T10051010  RH  097%=      5-min Rain = 0
KBY1 091116Z 27005KT M01/M01 A3024 RMK A01 T10051010  RH  096%=      5-min Rain = 0
KBY1 091117Z 26004KT M01/M01 A3024 RMK A01 T10051010  RH  096%=      5-min Rain = 0
KBY1 091118Z 27004KT M01/M01 A3024 RMK A01 T10051011  RH  096%=      5-min Rain = 0
KBY1 091119Z 28003KT M01/M01 A3024 RMK A01 T10061011  RH  096%=      5-min Rain = 0
KBY1 091120Z 28003KT M01/M01 A3024 RMK A01 T10061011  RH  096%=      5-min Rain = 0
KBY1 091121Z 28003KT M01/M01 A3024 RMK A01 T10061012  RH  096%=      5-min Rain = 0
KBY1 091122Z 28003KT M01/M01 A3024 RMK A01 T10061012  RH  096%=      5-min Rain = 0
KBY1 091123Z 27004KT M01/M01 A3024 RMK A01 T10061012  RH  096%=      5-min Rain = 0
KBY1 091124Z 27006KT M01/M01 A3024 RMK A01 T10071012  RH  096%=      5-min Rain = 0
KBY1 091125Z 27006KT M01/M01 A3024 RMK A01 T10071013  RH  096%=      5-min Rain = 0
KBY1 091126Z 27006KT M01/M01 A3024 RMK A01 T10071012  RH  096%=      5-min Rain = 0
KBY1 091127Z 27006KT M01/M01 A3024 RMK A01 T10071012  RH  096%=      5-min Rain = 0
KBY1 091128Z 27006KT M01/M01 A3024 RMK A01 T10071012  RH  096%=      5-min Rain = 0
KBY1 091129Z 28005KT M01/M01 A3024 RMK A01 T10061012  RH  096%=      5-min Rain = 0
KBY1 091130Z 27004KT M01/M01 A3024 RMK A01 T10071012  RH  096%=      5-min Rain = 0
KBY1 091131Z 28003KT M01/M01 A3024 RMK A01 T10061012  RH  096%=      5-min Rain = 0
KBY1 091132Z 29003KT M01/M01 A3025 RMK A01 T10071012  RH  096%=      5-min Rain = 0
KBY1 091133Z 28002KT M01/M01 A3025 RMK A01 T10071012  RH  096%=      5-min Rain = 0
KBY1 091134Z 28003KT M01/M01 A3025 RMK A01 T10071012  RH  096%=      5-min Rain = 0
KBY1 091135Z 28003KT M01/M01 A3025 RMK A01 T10071012  RH  096%=      5-min Rain = 0
KBY1 091136Z 27002KT M01/M01 A3025 RMK A01 T10071012  RH  096%=      5-min Rain = 0
KBY1 091137Z 26003KT M01/M01 A3025 RMK A01 T10081013  RH  096%=      5-min Rain = 0
KBY1 091138Z 27004KT M01/M01 A3025 RMK A01 T10091014  RH  096%=      5-min Rain = 0
KBY1 091139Z 27006KT M01/M01 A3025 RMK A01 T10091014  RH  096%=      5-min Rain = 0
KBY1 091140Z 27005KT M01/M01 A3024 RMK A01 T10091014  RH  096%=      5-min Rain = 0
KBY1 091141Z 26005KT M01/M01 A3024 RMK A01 T10091014  RH  097%=      5-min Rain = 0
KBY1 091142Z 27004KT M01/M01 A3024 RMK A01 T10091014  RH  097%=      5-min Rain = 0
KBY1 091143Z 28003KT M01/M01 A3024 RMK A01 T10091014  RH  097%=      5-min Rain = 0
KBY1 091144Z 28003KT M01/M01 A3024 RMK A01 T10091014  RH  097%=      5-min Rain = 0
KBY1 091145Z 29003KT M01/M01 A3024 RMK A01 T10091013  RH  097%=      5-min Rain = 0
KBY1 091146Z 29004KT M01/M01 A3025 RMK A01 T10091013  RH  097%=      5-min Rain = 0
KBY1 091147Z 29002KT M01/M01 A3025 RMK A01 T10081013  RH  097%=      5-min Rain = 0
KBY1 091148Z 29003KT M01/M01 A3025 RMK A01 T10081013  RH  097%=      5-min Rain = 0
KBY1 091149Z 29002KT M01/M01 A3025 RMK A01 T10081013  RH  097%=      5-min Rain = 0
KBY1 091150Z 29004KT M01/M01 A3025 RMK A01 T10081012  RH  097%=      5-min Rain = 0
KBY1 091151Z 29003KT M01/M01 A3025 RMK A01 T10081013  RH  097%=      5-min Rain = 0
KBY1 091152Z 28002KT M01/M01 A3025 RMK A01 T10081013  RH  097%=      5-min Rain = 0
KBY1 091153Z 27003KT M01/M01 A3025 RMK A01 T10081013  RH  097%=      5-min Rain = 0
KBY1 091154Z 28002KT M01/M01 A3025 RMK A01 T10081013  RH  097%=      5-min Rain = 0
KBY1 091155Z 27004KT M01/M01 A3025 RMK A01 T10091014  RH  097%=      5-min Rain = 0
KBY1 091156Z 26004KT M01/M01 A3024 RMK A01 T10091014  RH  097%=      5-min Rain = 0
KBY1 091157Z 26005KT M01/M02 A3024 RMK A01 T10101015  RH  097%=      5-min Rain = 0
KBY1 091158Z 27006KT M01/M01 A3024 RMK A01 T10101014  RH  097%=      5-min Rain = 0
KBY1 091159Z 27006KT M01/M01 A3024 RMK A01 T10101014  RH  097%=      5-min Rain = 0
KBY1 091200Z 27007KT M01/M01 A3024 RMK A01 T10101014  RH  097%=      5-min Rain = 0
KBY1 091201Z 27006KT M01/M01 A3024 RMK A01 T10101014  RH  097%=      5-min Rain = 0
KBY1 091202Z 26007KT M01/M01 A3024 RMK A01 T10091013  RH  097%=      5-min Rain = 0
KBY1 091203Z 26006KT M01/M01 A3024 RMK A01 T10091013  RH  097%=      5-min Rain = 0
KBY1 091204Z 27004KT M01/M01 A3024 RMK A01 T10081012  RH  097%=      5-min Rain = 0
KBY1 091205Z 27004KT M01/M01 A3024 RMK A01 T10081012  RH  097%=      5-min Rain = 0
KBY1 091206Z 27004KT M01/M01 A3024 RMK A01 T10081012  RH  097%=      5-min Rain = 0
KBY1 091207Z 28004KT M01/M01 A3024 RMK A01 T10081012  RH  097%=      5-min Rain = 0
KBY1 091208Z 29003KT M01/M01 A3025 RMK A01 T10081012  RH  097%=      5-min Rain = 0
KBY1 091209Z 29003KT M01/M01 A3025 RMK A01 T10081012  RH  097%=      5-min Rain = 0
KBY1 091210Z 28003KT M01/M01 A3025 RMK A01 T10081012  RH  097%=      5-min Rain = 0
KBY1 091211Z 29004KT M01/M01 A3025 RMK A01 T10081012  RH  097%=      5-min Rain = 0
KBY1 091212Z 29004KT M01/M01 A3025 RMK A01 T10081012  RH  097%=      5-min Rain = 0
KBY1 091213Z 27003KT M01/M01 A3025 RMK A01 T10081012  RH  097%=      5-min Rain = 0
KBY1 091214Z 28002KT M01/M01 A3025 RMK A01 T10081012  RH  097%=      5-min Rain = 0
KBY1 091215Z 27004KT M01/M01 A3025 RMK A01 T10081013  RH  097%=      5-min Rain = 0
KBY1 091216Z 27004KT M01/M01 A3025 RMK A01 T10081012  RH  097%=      5-min Rain = 0
KBY1 091217Z 27005KT M01/M01 A3025 RMK A01 T10091013  RH  097%=      5-min Rain = 0
KBY1 091218Z 26005KT M01/M01 A3025 RMK A01 T10091013  RH  097%=      5-min Rain = 0
KBY1 091219Z 27005KT M01/M01 A3025 RMK A01 T10091013  RH  097%=      5-min Rain = 0
KBY1 091220Z 27004KT M01/M01 A3025 RMK A01 T10091013  RH  097%=      5-min Rain = 0
KBY1 091221Z 26006KT M01/M01 A3025 RMK A01 T10091013  RH  097%=      5-min Rain = 0
KBY1 091222Z 27006KT M01/M01 A3025 RMK A01 T10091013  RH  097%=      5-min Rain = 0
KBY1 091223Z 26005KT M01/M01 A3025 RMK A01 T10091013  RH  097%=      5-min Rain = 0
KBY1 091224Z 27006KT M01/M01 A3025 RMK A01 T10091013  RH  097%=      5-min Rain = 0
KBY1 091225Z 27006KT M01/M01 A3025 RMK A01 T10091013  RH  097%=      5-min Rain = 0
KBY1 091226Z 26005KT M01/M01 A3024 RMK A01 T10091013  RH  097%=      5-min Rain = 0
KBY1 091227Z 27006KT M01/M01 A3024 RMK A01 T10091013  RH  097%=      5-min Rain = 0
KBY1 091228Z 27006KT M01/M01 A3024 RMK A01 T10091013  RH  097%=      5-min Rain = 0
KBY1 091229Z 27006KT M01/M01 A3024 RMK A01 T10091013  RH  097%=      5-min Rain = 0
KBY1 091230Z 27005KT M01/M01 A3024 RMK A01 T10091013  RH  097%=      5-min Rain = 0
KBY1 091231Z 27004KT M01/M01 A3024 RMK A01 T10091013  RH  097%=      5-min Rain = 0
KBY1 091232Z 28003KT M01/M01 A3024 RMK A01 T10091013  RH  097%=      5-min Rain = 0
KBY1 091233Z 28003KT M01/M01 A3025 RMK A01 T10091013  RH  097%=      5-min Rain = 0
KBY1 091234Z 29004KT M01/M01 A3025 RMK A01 T10091013  RH  097%=      5-min Rain = 0
KBY1 091235Z 28002KT M01/M01 A3025 RMK A01 T10091013  RH  097%=      5-min Rain = 0
KBY1 091236Z 26002KT M01/M01 A3025 RMK A01 T10091013  RH  097%=      5-min Rain = 0
KBY1 091237Z 28002KT M01/M01 A3025 RMK A01 T10091013  RH  097%=      5-min Rain = 0
KBY1 091238Z 26003KT M01/M01 A3025 RMK A01 T10091013  RH  097%=      5-min Rain = 0
KBY1 091239Z 28003KT M01/M01 A3025 RMK A01 T10101014  RH  097%=      5-min Rain = 0
KBY1 091240Z 28004KT M01/M01 A3025 RMK A01 T10101014  RH  097%=      5-min Rain = 0
KBY1 091241Z 28004KT M01/M01 A3025 RMK A01 T10101014  RH  097%=      5-min Rain = 0
KBY1 091242Z 28003KT M01/M01 A3025 RMK A01 T10101014  RH  097%=      5-min Rain = 0
KBY1 091243Z 28003KT M01/M01 A3025 RMK A01 T10101014  RH  097%=      5-min Rain = 0
KBY1 091244Z 29003KT M01/M01 A3025 RMK A01 T10101013  RH  097%=      5-min Rain = 0
KBY1 091245Z 28004KT M01/M01 A3025 RMK A01 T10101014  RH  097%=      5-min Rain = 0
KBY1 091246Z 29005KT M01/M01 A3025 RMK A01 T10091013  RH  097%=      5-min Rain = 0
KBY1 091247Z 29005KT M01/M01 A3025 RMK A01 T10091013  RH  097%=      5-min Rain = 0
KBY1 091248Z 28003KT M01/M01 A3025 RMK A01 T10091012  RH  097%=      5-min Rain = 0
KBY1 091249Z 28003KT M01/M01 A3025 RMK A01 T10091013  RH  097%=      5-min Rain = 0
KBY1 091250Z 28004KT M01/M01 A3024 RMK A01 T10101014  RH  097%=      5-min Rain = 0
KBY1 091251Z 28003KT M01/M01 A3024 RMK A01 T10101014  RH  097%=      5-min Rain = 0
KBY1 091252Z 28002KT M01/M01 A3025 RMK A01 T10101014  RH  097%=      5-min Rain = 0
KBY1 091253Z 29005KT M01/M01 A3025 RMK A01 T10111014  RH  097%=      5-min Rain = 0
KBY1 091254Z 28004KT M01/M01 A3025 RMK A01 T10101014  RH  097%=      5-min Rain = 0
KBY1 091255Z 30003KT M01/M01 A3025 RMK A01 T10101013  RH  098%=      5-min Rain = 0
KBY1 091256Z 30004KT M01/M01 A3025 RMK A01 T10101013  RH  098%=      5-min Rain = 0
KBY1 091257Z 30002KT M01/M01 A3025 RMK A01 T10091013  RH  098%=      5-min Rain = 0
KBY1 091258Z 29003KT M01/M01 A3025 RMK A01 T10091013  RH  098%=      5-min Rain = 0
KBY1 091259Z 28003KT M01/M01 A3025 RMK A01 T10091013  RH  098%=      5-min Rain = 0
KBY1 091300Z 28003KT M01/M01 A3025 RMK A01 T10091013  RH  098%=      5-min Rain = 0
KBY1 091301Z 26004KT M01/M01 A3025 RMK A01 T10091013  RH  097%=      5-min Rain = 0
KBY1 091302Z 26004KT M01/M01 A3025 RMK A01 T10091013  RH  097%=      5-min Rain = 0
KBY1 091303Z 27005KT M01/M01 A3025 RMK A01 T10101013  RH  097%=      5-min Rain = 0
KBY1 091304Z 27006KT M01/M01 A3025 RMK A01 T10101013  RH  097%=      5-min Rain = 0
KBY1 091305Z 26006KT M01/M01 A3025 RMK A01 T10091013  RH  098%=      5-min Rain = 0
KBY1 091306Z 26005KT M01/M01 A3025 RMK A01 T10091012  RH  098%=      5-min Rain = 0
KBY1 091307Z 26005KT M01/M01 A3025 RMK A01 T10091012  RH  098%=      5-min Rain = 0
KBY1 091308Z 27004KT M01/M01 A3025 RMK A01 T10091012  RH  097%=      5-min Rain = 0
KBY1 091309Z 27004KT M01/M01 A3025 RMK A01 T10091013  RH  097%=      5-min Rain = 0
KBY1 091310Z 26003KT M01/M01 A3025 RMK A01 T10091012  RH  097%=      5-min Rain = 0
KBY1 091311Z 27003KT M01/M01 A3025 RMK A01 T10081012  RH  097%=      5-min Rain = 0
KBY1 091312Z 28002KT M01/M01 A3025 RMK A01 T10081012  RH  097%=      5-min Rain = 0
KBY1 091313Z 27003KT M01/M01 A3025 RMK A01 T10081012  RH  097%=      5-min Rain = 0
KBY1 091314Z 28002KT M01/M01 A3025 RMK A01 T10081011  RH  097%=      5-min Rain = 0
KBY1 091315Z 28002KT M01/M01 A3025 RMK A01 T10081012  RH  097%=      5-min Rain = 0
KBY1 091316Z 28003KT M01/M01 A3025 RMK A01 T10081012  RH  097%=      5-min Rain = 0
KBY1 091317Z 29001KT M01/M01 A3025 RMK A01 T10081012  RH  097%=      5-min Rain = 0
KBY1 091318Z 29002KT M01/M01 A3025 RMK A01 T10081012  RH  097%=      5-min Rain = 0
KBY1 091319Z 29003KT M01/M01 A3025 RMK A01 T10081012  RH  097%=      5-min Rain = 0
KBY1 091320Z 28002KT M01/M01 A3025 RMK A01 T10081012  RH  098%=      5-min Rain = 0
KBY1 091321Z 28002KT M01/M01 A3025 RMK A01 T10081011  RH  098%=      5-min Rain = 0
KBY1 091322Z 28002KT M01/M01 A3025 RMK A01 T10081011  RH  098%=      5-min Rain = 0
KBY1 091323Z 28003KT M01/M01 A3025 RMK A01 T10081011  RH  098%=      5-min Rain = 0
KBY1 091324Z 29005KT M01/M01 A3025 RMK A01 T10081011  RH  098%=      5-min Rain = 0
KBY1 091325Z 28003KT M01/M01 A3025 RMK A01 T10081011  RH  098%=      5-min Rain = 0
KBY1 091326Z 27004KT M01/M01 A3025 RMK A01 T10071011  RH  098%=      5-min Rain = 0
KBY1 091327Z 29003KT M01/M01 A3025 RMK A01 T10071011  RH  098%=      5-min Rain = 0
KBY1 091328Z 28004KT M01/M01 A3025 RMK A01 T10071011  RH  097%=      5-min Rain = 0
KBY1 091329Z 28003KT M01/M01 A3025 RMK A01 T10071011  RH  097%=      5-min Rain = 0
KBY1 091330Z 27004KT M01/M01 A3025 RMK A01 T10071010  RH  097%=      5-min Rain = 0
KBY1 091331Z 29002KT M01/M01 A3025 RMK A01 T10061010  RH  097%=      5-min Rain = 0
KBY1 091332Z 28001KT M01/M01 A3025 RMK A01 T10071011  RH  097%=      5-min Rain = 0
KBY1 091333Z 28001KT M01/M01 A3025 RMK A01 T10071011  RH  097%=      5-min Rain = 0
KBY1 091334Z 27001KT M01/M01 A3025 RMK A01 T10071011  RH  097%=      5-min Rain = 0
KBY1 091335Z 28002KT M01/M01 A3025 RMK A01 T10061011  RH  097%=      5-min Rain = 0
KBY1 091336Z 28001KT M01/M01 A3025 RMK A01 T10061011  RH  097%=      5-min Rain = 0
KBY1 091337Z 26003KT M01/M01 A3025 RMK A01 T10061011  RH  097%=      5-min Rain = 0
KBY1 091338Z 26004KT M01/M01 A3025 RMK A01 T10061011  RH  097%=      5-min Rain = 0
KBY1 091339Z 26004KT M01/M01 A3025 RMK A01 T10061011  RH  096%=      5-min Rain = 0
KBY1 091340Z 26005KT M01/M01 A3025 RMK A01 T10071011  RH  096%=      5-min Rain = 0
KBY1 091341Z 27004KT M01/M01 A3025 RMK A01 T10061011  RH  097%=      5-min Rain = 0
KBY1 091342Z 27004KT M01/M01 A3025 RMK A01 T10051010  RH  097%=      5-min Rain = 0
KBY1 091343Z 27004KT M01/M01 A3025 RMK A01 T10051010  RH  097%=      5-min Rain = 0
KBY1 091344Z 29002KT M01/M01 A3025 RMK A01 T10051010  RH  096%=      5-min Rain = 0
KBY1 091345Z 27002KT M00/M01 A3025 RMK A01 T10041009  RH  096%=      5-min Rain = 0
KBY1 091346Z 26002KT M00/M01 A3025 RMK A01 T10041009  RH  096%=      5-min Rain = 0
KBY1 091347Z 27002KT M00/M01 A3025 RMK A01 T10031009  RH  096%=      5-min Rain = 0
KBY1 091348Z 27002KT M00/M01 A3025 RMK A01 T10031009  RH  096%=      5-min Rain = 0
KBY1 091349Z 26002KT M00/M01 A3025 RMK A01 T10031009  RH  096%=      5-min Rain = 0
KBY1 091350Z 26004KT M00/M01 A3025 RMK A01 T10031009  RH  096%=      5-min Rain = 0
KBY1 091351Z 25003KT M00/M01 A3025 RMK A01 T10031009  RH  095%=      5-min Rain = 0
KBY1 091352Z 26004KT M00/M01 A3025 RMK A01 T10031009  RH  095%=      5-min Rain = 0
KBY1 091353Z 25004KT M00/M01 A3025 RMK A01 T10021009  RH  095%=      5-min Rain = 0
KBY1 091354Z 26003KT M00/M01 A3025 RMK A01 T10021009  RH  095%=      5-min Rain = 0
KBY1 091355Z 26004KT M00/M01 A3025 RMK A01 T10021009  RH  095%=      5-min Rain = 0
KBY1 091356Z 26003KT M00/M01 A3025 RMK A01 T10011008  RH  095%=      5-min Rain = 0
KBY1 091357Z 26002KT M00/M01 A3025 RMK A01 T10011008  RH  095%=      5-min Rain = 0
KBY1 091358Z 30001KT 00/01 A3025 RMK A01 T00-000-8  RH  095%=      5-min Rain = 0
KBY1 091359Z 27000KT 00/01 A3025 RMK A01 T000000-7  RH  095%=      5-min Rain = 0
KBY1 091400Z 00000KT 00/M01 A3025 RMK A01 T00021006  RH  095%=      5-min Rain = 0
KBY1 091401Z 30001KT 00/M01 A3025 RMK A01 T00031005  RH  095%=      5-min Rain = 0
KBY1 091402Z 27004KT 00/M01 A3025 RMK A01 T00041005  RH  094%=      5-min Rain = 0
KBY1 091403Z 26005KT 00/M01 A3025 RMK A01 T00041006  RH  093%=      5-min Rain = 0
KBY1 091404Z 26005KT 00/M01 A3025 RMK A01 T00041007  RH  093%=      5-min Rain = 0
KBY1 091405Z 26006KT 00/M01 A3025 RMK A01 T00041007  RH  093%=      5-min Rain = 0
KBY1 091406Z 27005KT 00/M01 A3025 RMK A01 T00041007  RH  092%=      5-min Rain = 0
KBY1 091407Z 27006KT 00/M01 A3025 RMK A01 T00041007  RH  093%=      5-min Rain = 0
KBY1 091408Z 26005KT 00/M01 A3025 RMK A01 T00041007  RH  092%=      5-min Rain = 0
KBY1 091409Z 26004KT 00/M01 A3025 RMK A01 T00041007  RH  092%=      5-min Rain = 0
KBY1 091410Z 26004KT 00/M01 A3025 RMK A01 T00041007  RH  092%=      5-min Rain = 0
KBY1 091411Z 26003KT 01/M01 A3025 RMK A01 T00051006  RH  092%=      5-min Rain = 0
KBY1 091412Z 26004KT 01/M01 A3025 RMK A01 T00061005  RH  092%=      5-min Rain = 0
KBY1 091413Z 25004KT 01/M01 A3025 RMK A01 T00061005  RH  092%=      5-min Rain = 0
KBY1 091414Z 27003KT 01/M01 A3025 RMK A01 T00061005  RH  092%=      5-min Rain = 0
KBY1 091415Z 26005KT 01/M00 A3025 RMK A01 T00071004  RH  092%=      5-min Rain = 0
KBY1 091416Z 26005KT 01/M00 A3025 RMK A01 T00071004  RH  092%=      5-min Rain = 0
KBY1 091417Z 27005KT 01/M00 A3025 RMK A01 T00081004  RH  092%=      5-min Rain = 0
KBY1 091418Z 26004KT 01/M00 A3025 RMK A01 T00081003  RH  092%=      5-min Rain = 0
KBY1 091419Z 26005KT 01/M00 A3025 RMK A01 T00091002  RH  092%=      5-min Rain = 0
KBY1 091420Z 26005KT 01/M00 A3025 RMK A01 T00091002  RH  092%=      5-min Rain = 0
KBY1 091421Z 27005KT 01/M00 A3025 RMK A01 T00101001  RH  093%=      5-min Rain = 0
KBY1 091422Z 27006KT 01/00 A3025 RMK A01 T00110000  RH  093%=      5-min Rain = 0
KBY1 091423Z 27006KT 01/00 A3025 RMK A01 T00120001  RH  093%=      5-min Rain = 0
KBY1 091424Z 27005KT 01/00 A3025 RMK A01 T00120001  RH  092%=      5-min Rain = 0
KBY1 091425Z 27004KT 01/00 A3025 RMK A01 T00120001  RH  092%=      5-min Rain = 0
KBY1 091426Z 27003KT 01/00 A3025 RMK A01 T00130001  RH  092%=      5-min Rain = 0
KBY1 091427Z 28003KT 01/00 A3026 RMK A01 T00140002  RH  092%=      5-min Rain = 0
KBY1 091428Z 26005KT 01/00 A3026 RMK A01 T00140003  RH  092%=      5-min Rain = 0
KBY1 091429Z 26004KT 02/00 A3026 RMK A01 T00150003  RH  092%=      5-min Rain = 0
KBY1 091430Z 27005KT 02/00 A3026 RMK A01 T00160004  RH  092%=      5-min Rain = 0
KBY1 091431Z 27005KT 02/01 A3026 RMK A01 T00170005  RH  092%=      5-min Rain = 0
KBY1 091432Z 27007KT 02/01 A3025 RMK A01 T00180006  RH  092%=      5-min Rain = 0
KBY1 091433Z 27007KT 02/01 A3025 RMK A01 T00180005  RH  091%=      5-min Rain = 0
KBY1 091434Z 27007KT 02/00 A3025 RMK A01 T00180004  RH  091%=      5-min Rain = 0
KBY1 091435Z 27007KT 02/01 A3025 RMK A01 T00190005  RH  091%=      5-min Rain = 0
KBY1 091436Z 27007KT 02/01 A3025 RMK A01 T00190005  RH  090%=      5-min Rain = 0
KBY1 091437Z 27006KT 02/01 A3025 RMK A01 T00200007  RH  091%=      5-min Rain = 0
KBY1 091438Z 27004KT 02/01 A3026 RMK A01 T00220008  RH  090%=      5-min Rain = 0
KBY1 091439Z 28002KT 02/01 A3026 RMK A01 T00230009  RH  090%=      5-min Rain = 0
KBY1 091440Z 29004KT 03/01 A3026 RMK A01 T00250010  RH  090%=      5-min Rain = 0
KBY1 091441Z 29006KT 03/01 A3026 RMK A01 T00250009  RH  089%=      5-min Rain = 0
KBY1 091442Z 28005KT 03/01 A3026 RMK A01 T00250008  RH  089%=      5-min Rain = 0
KBY1 091443Z 29005KT 03/01 A3026 RMK A01 T00250009  RH  089%=      5-min Rain = 0
KBY1 091444Z 28004KT 03/01 A3026 RMK A01 T00260010  RH  089%=      5-min Rain = 0
KBY1 091445Z 29004KT 03/01 A3026 RMK A01 T00270011  RH  089%=      5-min Rain = 0
KBY1 091446Z 29005KT 03/01 A3026 RMK A01 T00280011  RH  089%=      5-min Rain = 0
KBY1 091447Z 28004KT 03/01 A3026 RMK A01 T00290012  RH  088%=      5-min Rain = 0
KBY1 091448Z 29005KT 03/01 A3026 RMK A01 T00300013  RH  088%=      5-min Rain = 0
KBY1 091449Z 28004KT 03/01 A3026 RMK A01 T00310013  RH  088%=      5-min Rain = 0
KBY1 091450Z 28005KT 03/02 A3026 RMK A01 T00330015  RH  088%=      5-min Rain = 0
KBY1 091451Z 27005KT 03/02 A3026 RMK A01 T00340016  RH  088%=      5-min Rain = 0
KBY1 091452Z 28005KT 04/02 A3026 RMK A01 T00350016  RH  087%=      5-min Rain = 0
KBY1 091453Z 28005KT 04/02 A3026 RMK A01 T00360016  RH  087%=      5-min Rain = 0
KBY1 091454Z 29006KT 04/02 A3026 RMK A01 T00370017  RH  087%=      5-min Rain = 0
KBY1 091455Z 27005KT 04/02 A3026 RMK A01 T00380017  RH  086%=      5-min Rain = 0
KBY1 091456Z 26006KT 04/02 A3026 RMK A01 T00380017  RH  086%=      5-min Rain = 0
KBY1 091457Z 26006KT 04/02 A3026 RMK A01 T00390018  RH  086%=      5-min Rain = 0
KBY1 091458Z 27004KT 04/02 A3026 RMK A01 T00390017  RH  086%=      5-min Rain = 0
KBY1 091459Z 27006KT 04/02 A3026 RMK A01 T00400019  RH  086%=      5-min Rain = 0
KBY1 091500Z 27005KT 04/02 A3026 RMK A01 T00410020  RH  086%=      5-min Rain = 0
KBY1 091501Z 27004KT 04/02 A3026 RMK A01 T00410020  RH  086%=      5-min Rain = 0
KBY1 091502Z 26006KT 04/02 A3026 RMK A01 T00430023  RH  087%=      5-min Rain = 0
KBY1 091503Z 26006KT 05/02 A3026 RMK A01 T00450023  RH  086%=      5-min Rain = 0
KBY1 091504Z 28005KT 05/02 A3026 RMK A01 T00450022  RH  085%=      5-min Rain = 0
KBY1 091505Z 26006KT 05/02 A3026 RMK A01 T00460023  RH  086%=      5-min Rain = 0
KBY1 091506Z 26006KT 05/03 A3026 RMK A01 T00470025  RH  085%=      5-min Rain = 0
KBY1 091507Z 26005KT 05/02 A3026 RMK A01 T00480024  RH  084%=      5-min Rain = 0
KBY1 091508Z 26005KT 05/03 A3026 RMK A01 T00490025  RH  085%=      5-min Rain = 0
KBY1 091509Z 27005KT 05/03 A3026 RMK A01 T00490025  RH  084%=      5-min Rain = 0
KBY1 091510Z 25005KT 05/03 A3026 RMK A01 T00500026  RH  084%=      5-min Rain = 0
KBY1 091511Z 26007KT 05/03 A3026 RMK A01 T00510027  RH  084%=      5-min Rain = 0
KBY1 091512Z 26007KT 05/03 A3026 RMK A01 T00510025  RH  083%=      5-min Rain = 0
KBY1 091513Z 26007KT 05/03 A3026 RMK A01 T00510025  RH  083%=      5-min Rain = 0
KBY1 091514Z 26008KT 05/03 A3026 RMK A01 T00510025  RH  083%=      5-min Rain = 0
KBY1 091515Z 26009KT 05/03 A3026 RMK A01 T00510025  RH  083%=      5-min Rain = 0
KBY1 091516Z 26007KT 05/03 A3025 RMK A01 T00520026  RH  084%=      5-min Rain = 0
KBY1 091517Z 26007KT 05/03 A3025 RMK A01 T00540028  RH  083%=      5-min Rain = 0
KBY1 091518Z 27010KT 06/03 A3025 RMK A01 T00550028  RH  083%=      5-min Rain = 0
KBY1 091519Z 27006KT 06/03 A3025 RMK A01 T00560028  RH  082%=      5-min Rain = 0
KBY1 091520Z 26007KT 06/03 A3025 RMK A01 T00570030  RH  083%=      5-min Rain = 0
KBY1 091521Z 27007KT 06/03 A3025 RMK A01 T00580030  RH  082%=      5-min Rain = 0
KBY1 091522Z 27007KT 06/03 A3026 RMK A01 T00590030  RH  082%=      5-min Rain = 0
KBY1 091523Z 26007KT 06/03 A3026 RMK A01 T00590029  RH  081%=      5-min Rain = 0
KBY1 091524Z 27004KT 06/03 A3026 RMK A01 T00600031  RH  081%=      5-min Rain = 0
KBY1 091525Z 26006KT 06/03 A3026 RMK A01 T00620032  RH  081%=      5-min Rain = 0
KBY1 091526Z 28006KT 06/03 A3026 RMK A01 T00640032  RH  080%=      5-min Rain = 0
KBY1 091527Z 27005KT 07/03 A3026 RMK A01 T00650033  RH  080%=      5-min Rain = 0
KBY1 091528Z 27007KT 07/03 A3026 RMK A01 T00670033  RH  079%=      5-min Rain = 0
KBY1 091529Z 29008KT 07/03 A3026 RMK A01 T00670032  RH  078%=      5-min Rain = 0
KBY1 091530Z 27005KT 07/03 A3026 RMK A01 T00670033  RH  079%=      5-min Rain = 0
KBY1 091531Z 27007KT 07/04 A3026 RMK A01 T00700035  RH  078%=      5-min Rain = 0
KBY1 091532Z 27008KT 07/03 A3026 RMK A01 T00710033  RH  077%=      5-min Rain = 0
KBY1 091533Z 27007KT 07/03 A3026 RMK A01 T00710033  RH  076%=      5-min Rain = 0
KBY1 091534Z 27007KT 07/03 A3026 RMK A01 T00710034  RH  077%=      5-min Rain = 0
KBY1 091535Z 26009KT 07/03 A3025 RMK A01 T00720033  RH  076%=      5-min Rain = 0
KBY1 091536Z 27008KT 07/03 A3026 RMK A01 T00720033  RH  076%=      5-min Rain = 0
KBY1 091537Z 27008KT 07/03 A3026 RMK A01 T00720033  RH  076%=      5-min Rain = 0
KBY1 091538Z 27005KT 07/03 A3026 RMK A01 T00720033  RH  076%=      5-min Rain = 0
KBY1 091539Z 26006KT 07/04 A3026 RMK A01 T00740035  RH  077%=      5-min Rain = 0
KBY1 091540Z 26007KT 08/04 A3026 RMK A01 T00760036  RH  076%=      5-min Rain = 0
KBY1 091541Z 27008KT 08/04 A3026 RMK A01 T00770035  RH  074%=      5-min Rain = 0
KBY1 091542Z 27009KT 08/03 A3026 RMK A01 T00770034  RH  074%=      5-min Rain = 0
KBY1 091543Z 27007KT 08/03 A3025 RMK A01 T00780034  RH  074%=      5-min Rain = 0
KBY1 091544Z 27008KT 08/03 A3025 RMK A01 T00780034  RH  074%=      5-min Rain = 0
KBY1 091545Z 27008KT 08/04 A3025 RMK A01 T00790035  RH  074%=      5-min Rain = 0
KBY1 091546Z 28006KT 08/04 A3025 RMK A01 T00800036  RH  074%=      5-min Rain = 0
KBY1 091547Z 28007KT 08/04 A3025 RMK A01 T00820037  RH  073%=      5-min Rain = 0
KBY1 091548Z 27007KT 08/04 A3025 RMK A01 T00830037  RH  073%=      5-min Rain = 0
KBY1 091549Z 28008KT 08/04 A3025 RMK A01 T00840037  RH  072%=      5-min Rain = 0
KBY1 091550Z 27006KT 09/04 A3025 RMK A01 T00860038  RH  072%=      5-min Rain = 0
KBY1 091551Z 26010KT 09/04 A3026 RMK A01 T00870038  RH  071%=      5-min Rain = 0
KBY1 091552Z 27008KT 09/04 A3026 RMK A01 T00870037  RH  071%=      5-min Rain = 0
KBY1 091553Z 27008KT 09/04 A3026 RMK A01 T00870037  RH  071%=      5-min Rain = 0
KBY1 091554Z 27008KT 09/04 A3026 RMK A01 T00880038  RH  071%=      5-min Rain = 0
KBY1 091555Z 27008KT 09/04 A3026 RMK A01 T00880037  RH  070%=      5-min Rain = 0
KBY1 091556Z 27009KT 09/04 A3025 RMK A01 T00880037  RH  070%=      5-min Rain = 0
KBY1 091557Z 26009KT 09/04 A3025 RMK A01 T00880037  RH  070%=      5-min Rain = 0
KBY1 091558Z 27008KT 09/04 A3025 RMK A01 T00890039  RH  071%=      5-min Rain = 0
KBY1 091559Z 27008KT 09/04 A3025 RMK A01 T00920041  RH  070%=      5-min Rain = 0
KBY1 091600Z 27008KT 09/04 A3025 RMK A01 T00930040  RH  069%=      5-min Rain = 0
KBY1 091601Z 27009KT 09/04 A3025 RMK A01 T00930039  RH  069%=      5-min Rain = 0
KBY1 091602Z 26010KT 09/04 A3025 RMK A01 T00930039  RH  069%=      5-min Rain = 0
KBY1 091603Z 27009KT 09/04 A3025 RMK A01 T00940039  RH  069%=      5-min Rain = 0
KBY1 091604Z 26009KT 10/04 A3025 RMK A01 T00950040  RH  068%=      5-min Rain = 0
KBY1 091605Z 27008KT 10/04 A3025 RMK A01 T00960040  RH  068%=      5-min Rain = 0
KBY1 091606Z 26008KT 10/04 A3025 RMK A01 T00960040  RH  068%=      5-min Rain = 0
KBY1 091607Z 26010KT 10/04 A3025 RMK A01 T00970039  RH  068%=      5-min Rain = 0
KBY1 091608Z 26009KT 10/04 A3025 RMK A01 T00960040  RH  068%=      5-min Rain = 0
KBY1 091609Z 27009KT 10/04 A3025 RMK A01 T00960040  RH  068%=      5-min Rain = 0
KBY1 091610Z 26006KT 10/04 A3025 RMK A01 T00960040  RH  068%=      5-min Rain = 0
KBY1 091611Z 26007KT 10/04 A3025 RMK A01 T00970041  RH  068%=      5-min Rain = 0
KBY1 091612Z 27009KT 10/04 A3025 RMK A01 T00980040  RH  067%=      5-min Rain = 0
KBY1 091613Z 28007KT 10/04 A3025 RMK A01 T00980040  RH  067%=      5-min Rain = 0
KBY1 091614Z 26008KT 10/04 A3025 RMK A01 T00990041  RH  067%=      5-min Rain = 0
KBY1 091615Z 27009KT 10/04 A3025 RMK A01 T01000042  RH  067%=      5-min Rain = 0
KBY1 091616Z 27008KT 10/04 A3025 RMK A01 T01010042  RH  067%=      5-min Rain = 0
KBY1 091617Z 27007KT 10/04 A3025 RMK A01 T01020042  RH  066%=      5-min Rain = 0
KBY1 091618Z 29007KT 10/04 A3025 RMK A01 T01020042  RH  066%=      5-min Rain = 0
KBY1 091619Z 26006KT 10/04 A3025 RMK A01 T01040043  RH  066%=      5-min Rain = 0
KBY1 091620Z 26007KT 11/05 A3025 RMK A01 T01070045  RH  066%=      5-min Rain = 0
KBY1 091621Z 26006KT 11/05 A3025 RMK A01 T01090045  RH  065%=      5-min Rain = 0
KBY1 091622Z 26008KT 11/05 A3025 RMK A01 T01110045  RH  064%=      5-min Rain = 0
KBY1 091623Z 26006KT 11/04 A3025 RMK A01 T01110044  RH  064%=      5-min Rain = 0
KBY1 091624Z 27006KT 11/05 A3025 RMK A01 T01120045  RH  063%=      5-min Rain = 0
KBY1 091625Z 26008KT 11/04 A3025 RMK A01 T01120043  RH  063%=      5-min Rain = 0
KBY1 091626Z 26008KT 11/04 A3025 RMK A01 T01100043  RH  063%=      5-min Rain = 0
KBY1 091627Z 27006KT 11/04 A3025 RMK A01 T01090044  RH  064%=      5-min Rain = 0
KBY1 091628Z 28006KT 11/04 A3025 RMK A01 T01090043  RH  064%=      5-min Rain = 0
KBY1 091629Z 28007KT 11/04 A3025 RMK A01 T01090043  RH  064%=      5-min Rain = 0
KBY1 091630Z 27006KT 11/04 A3025 RMK A01 T01090042  RH  064%=      5-min Rain = 0
KBY1 091631Z 28005KT 11/04 A3025 RMK A01 T01090044  RH  064%=      5-min Rain = 0
KBY1 091632Z 28006KT 11/05 A3025 RMK A01 T01120047  RH  064%=      5-min Rain = 0
KBY1 091633Z 26005KT 12/05 A3025 RMK A01 T01150046  RH  062%=      5-min Rain = 0
KBY1 091634Z 26006KT 12/05 A3024 RMK A01 T01170048  RH  062%=      5-min Rain = 0
KBY1 091635Z 25006KT 12/05 A3024 RMK A01 T01190046  RH  061%=      5-min Rain = 0
KBY1 091636Z 26009KT 12/05 A3024 RMK A01 T01190046  RH  061%=      5-min Rain = 0
KBY1 091637Z 26006KT 12/05 A3024 RMK A01 T01200046  RH  061%=      5-min Rain = 0
KBY1 091638Z 25008KT 12/05 A3024 RMK A01 T01200047  RH  061%=      5-min Rain = 0
KBY1 091639Z 26006KT 12/05 A3024 RMK A01 T01210046  RH  060%=      5-min Rain = 0
KBY1 091640Z 27007KT 12/05 A3024 RMK A01 T01210046  RH  060%=      5-min Rain = 0
KBY1 091641Z 27005KT 12/05 A3024 RMK A01 T01220046  RH  059%=      5-min Rain = 0
KBY1 091642Z 25004KT 12/05 A3024 RMK A01 T01240047  RH  060%=      5-min Rain = 0
KBY1 091643Z 27006KT 13/05 A3024 RMK A01 T01260047  RH  059%=      5-min Rain = 0
KBY1 091644Z 26007KT 13/05 A3024 RMK A01 T01260046  RH  058%=      5-min Rain = 0
KBY1 091645Z 27006KT 13/05 A3024 RMK A01 T01260046  RH  058%=      5-min Rain = 0
KBY1 091646Z 26007KT 13/05 A3024 RMK A01 T01260046  RH  058%=      5-min Rain = 0
KBY1 091647Z 29004KT 13/05 A3024 RMK A01 T01270046  RH  058%=      5-min Rain = 0
KBY1 091648Z 26005KT 13/05 A3024 RMK A01 T01280046  RH  058%=      5-min Rain = 0
KBY1 091649Z 27007KT 13/05 A3024 RMK A01 T01300047  RH  057%=      5-min Rain = 0
KBY1 091650Z 26007KT 13/05 A3024 RMK A01 T01310047  RH  057%=      5-min Rain = 0
KBY1 091651Z 27007KT 13/05 A3024 RMK A01 T01310046  RH  056%=      5-min Rain = 0
KBY1 091652Z 27005KT 13/05 A3024 RMK A01 T01310045  RH  056%=      5-min Rain = 0
KBY1 091653Z 29006KT 13/05 A3024 RMK A01 T01320046  RH  056%=      5-min Rain = 0
KBY1 091654Z 27005KT 13/05 A3024 RMK A01 T01340047  RH  055%=      5-min Rain = 0
KBY1 091655Z 26006KT 14/05 A3024 RMK A01 T01370048  RH  055%=      5-min Rain = 0
KBY1 091656Z 26006KT 14/05 A3024 RMK A01 T01380047  RH  054%=      5-min Rain = 0
KBY1 091657Z 26006KT 14/05 A3024 RMK A01 T01360046  RH  054%=      5-min Rain = 0
KBY1 091658Z 28005KT 14/05 A3024 RMK A01 T01350046  RH  055%=      5-min Rain = 0
KBY1 091659Z 29005KT 14/05 A3024 RMK A01 T01350045  RH  055%=      5-min Rain = 0
KBY1 091700Z 27005KT 14/05 A3024 RMK A01 T01360047  RH  055%=      5-min Rain = 0
KBY1 091701Z 26006KT 14/05 A3024 RMK A01 T01380048  RH  054%=      5-min Rain = 0
KBY1 091702Z 27006KT 14/05 A3024 RMK A01 T01400047  RH  053%=      5-min Rain = 0
KBY1 091703Z 28005KT 14/05 A3024 RMK A01 T01400046  RH  053%=      5-min Rain = 0
KBY1 091704Z 30004KT 14/05 A3023 RMK A01 T01380045  RH  053%=      5-min Rain = 0
KBY1 091705Z 25005KT 14/05 A3023 RMK A01 T01390047  RH  054%=      5-min Rain = 0
KBY1 091706Z 25007KT 14/05 A3023 RMK A01 T01420048  RH  053%=      5-min Rain = 0
KBY1 091707Z 25007KT 14/05 A3023 RMK A01 T01430048  RH  053%=      5-min Rain = 0
KBY1 091708Z 25005KT 14/05 A3023 RMK A01 T01440048  RH  053%=      5-min Rain = 0
KBY1 091709Z 25006KT 14/05 A3023 RMK A01 T01440047  RH  052%=      5-min Rain = 0
KBY1 091710Z 26006KT 14/05 A3023 RMK A01 T01440047  RH  052%=      5-min Rain = 0
KBY1 091711Z 25007KT 14/05 A3023 RMK A01 T01430048  RH  053%=      5-min Rain = 0
KBY1 091712Z 25007KT 14/05 A3023 RMK A01 T01440048  RH  052%=      5-min Rain = 0
KBY1 091713Z 26005KT 15/05 A3023 RMK A01 T01460049  RH  052%=      5-min Rain = 0
KBY1 091714Z 24005KT 15/05 A3023 RMK A01 T01490050  RH  052%=      5-min Rain = 0
KBY1 091715Z 24006KT 15/05 A3023 RMK A01 T01510049  RH  051%=      5-min Rain = 0
KBY1 091716Z 26007KT 15/05 A3023 RMK A01 T01520050  RH  050%=      5-min Rain = 0
KBY1 091717Z 26003KT 15/05 A3023 RMK A01 T01520050  RH  050%=      5-min Rain = 0
KBY1 091718Z 27005KT 15/05 A3023 RMK A01 T01520049  RH  050%=      5-min Rain = 0
KBY1 091719Z 25004KT 15/05 A3023 RMK A01 T01520048  RH  050%=      5-min Rain = 0
KBY1 091720Z 25004KT 15/05 A3023 RMK A01 T01530050  RH  050%=      5-min Rain = 0
KBY1 091721Z 27003KT 15/05 A3023 RMK A01 T01540049  RH  050%=      5-min Rain = 0
KBY1 091722Z 31005KT 16/05 A3023 RMK A01 T01550051  RH  050%=      5-min Rain = 0
KBY1 091723Z 29005KT 16/05 A3023 RMK A01 T01570050  RH  049%=      5-min Rain = 0
KBY1 091724Z 27004KT 16/05 A3022 RMK A01 T01580050  RH  049%=      5-min Rain = 0
KBY1 091725Z 28003KT 16/05 A3022 RMK A01 T01600051  RH  049%=      5-min Rain = 0
KBY1 091726Z 28006KT 16/05 A3022 RMK A01 T01620051  RH  048%=      5-min Rain = 0
KBY1 091727Z 27006KT 16/05 A3022 RMK A01 T01630049  RH  047%=      5-min Rain = 0
KBY1 091728Z 26006KT 16/05 A3022 RMK A01 T01610048  RH  047%=      5-min Rain = 0
KBY1 091729Z 28005KT 16/05 A3022 RMK A01 T01590048  RH  047%=      5-min Rain = 0
KBY1 091730Z 27007KT 16/05 A3022 RMK A01 T01600046  RH  047%=      5-min Rain = 0
KBY1 091731Z 27006KT 16/05 A3022 RMK A01 T01590045  RH  047%=      5-min Rain = 0
KBY1 091732Z 27005KT 16/05 A3022 RMK A01 T01580047  RH  048%=      5-min Rain = 0
KBY1 091733Z 27006KT 16/05 A3022 RMK A01 T01590047  RH  047%=      5-min Rain = 0
KBY1 091734Z 27006KT 16/05 A3022 RMK A01 T01590048  RH  048%=      5-min Rain = 0
KBY1 091735Z 26006KT 16/05 A3022 RMK A01 T01600050  RH  048%=      5-min Rain = 0
KBY1 091736Z 27006KT 16/05 A3022 RMK A01 T01630050  RH  047%=      5-min Rain = 0
KBY1 091737Z 27007KT 17/05 A3021 RMK A01 T01650049  RH  046%=      5-min Rain = 0
KBY1 091738Z 27006KT 17/05 A3021 RMK A01 T01660049  RH  046%=      5-min Rain = 0
KBY1 091739Z 27006KT 17/05 A3021 RMK A01 T01650048  RH  046%=      5-min Rain = 0
KBY1 091740Z 26006KT 17/05 A3021 RMK A01 T01650049  RH  046%=      5-min Rain = 0
KBY1 091741Z 26005KT 17/05 A3021 RMK A01 T01650050  RH  046%=      5-min Rain = 0
KBY1 091742Z 25007KT 17/05 A3021 RMK A01 T01660049  RH  046%=      5-min Rain = 0
KBY1 091743Z 26007KT 17/05 A3021 RMK A01 T01680048  RH  045%=      5-min Rain = 0
KBY1 091744Z 29005KT 17/05 A3021 RMK A01 T01680048  RH  045%=      5-min Rain = 0
KBY1 091745Z 29004KT 17/05 A3021 RMK A01 T01720050  RH  045%=      5-min Rain = 0
KBY1 091746Z 29005KT 17/05 A3021 RMK A01 T01740048  RH  043%=      5-min Rain = 0
KBY1 091747Z 26004KT 18/05 A3021 RMK A01 T01760051  RH  044%=      5-min Rain = 0
KBY1 091748Z 29004KT 18/05 A3021 RMK A01 T01780052  RH  043%=      5-min Rain = 0
KBY1 091749Z 30005KT 18/05 A3021 RMK A01 T01790049  RH  042%=      5-min Rain = 0
KBY1 091750Z 30005KT 18/05 A3021 RMK A01 T01780048  RH  042%=      5-min Rain = 0
KBY1 091751Z 31006KT 18/05 A3021 RMK A01 T01770048  RH  043%=      5-min Rain = 0
KBY1 091752Z 31005KT 18/05 A3021 RMK A01 T01770048  RH  042%=      5-min Rain = 0
KBY1 091753Z 30004KT 18/05 A3021 RMK A01 T01770049  RH  043%=      5-min Rain = 0
KBY1 091754Z 28003KT 18/05 A3021 RMK A01 T01790049  RH  042%=      5-min Rain = 0
KBY1 091755Z 24005KT 18/05 A3021 RMK A01 T01800046  RH  041%=      5-min Rain = 0
KBY1 091756Z 23005KT 18/05 A302 RMK A01 T01810045  RH  041%=      5-min Rain = 0
KBY1 091757Z 27006KT 18/05 A302 RMK A01 T01830048  RH  041%=      5-min Rain = 0
KBY1 091758Z 27005KT 18/05 A302 RMK A01 T01820048  RH  041%=      5-min Rain = 0
KBY1 091759Z 27004KT 18/05 A302 RMK A01 T01800048  RH  042%=      5-min Rain = 0
KBY1 091800Z 25004KT 18/05 A302 RMK A01 T01790049  RH  042%=      5-min Rain = 0
KBY1 091801Z 25005KT 18/05 A302 RMK A01 T01820047  RH  041%=      5-min Rain = 0
KBY1 091802Z 28005KT 18/05 A302 RMK A01 T01830047  RH  041%=      5-min Rain = 0
KBY1 091803Z 27005KT 18/04 A302 RMK A01 T01840044  RH  040%=      5-min Rain = 0
KBY1 091804Z 26005KT 18/05 A302 RMK A01 T01840045  RH  040%=      5-min Rain = 0
KBY1 091805Z 26004KT 18/04 A302 RMK A01 T01820043  RH  040%=      5-min Rain = 0
KBY1 091806Z 25004KT 18/05 A302 RMK A01 T01820046  RH  041%=      5-min Rain = 0
KBY1 091807Z 26003KT 18/05 A302 RMK A01 T01840048  RH  041%=      5-min Rain = 0
KBY1 091808Z 28003KT 19/05 A302 RMK A01 T01870049  RH  040%=      5-min Rain = 0
KBY1 091809Z 27004KT 19/05 A3019 RMK A01 T01880049  RH  040%=      5-min Rain = 0
KBY1 091810Z 27004KT 19/05 A3019 RMK A01 T01890049  RH  040%=      5-min Rain = 0
KBY1 091811Z 28003KT 19/05 A3019 RMK A01 T01900047  RH  039%=      5-min Rain = 0
KBY1 091812Z 26002KT 19/05 A3019 RMK A01 T01890046  RH  039%=      5-min Rain = 0
KBY1 091813Z 28004KT 19/05 A3019 RMK A01 T01900047  RH  039%=      5-min Rain = 0
KBY1 091814Z 29003KT 19/05 A3019 RMK A01 T01920047  RH  039%=      5-min Rain = 0
KBY1 091815Z 27004KT 19/05 A3019 RMK A01 T01940049  RH  039%=      5-min Rain = 0
KBY1 091816Z 28003KT 20/05 A3019 RMK A01 T01950050  RH  038%=      5-min Rain = 0
KBY1 091817Z 25006KT 20/05 A3019 RMK A01 T01960048  RH  038%=      5-min Rain = 0
KBY1 091818Z 24005KT 20/05 A3019 RMK A01 T01960049  RH  038%=      5-min Rain = 0
KBY1 091819Z 25004KT 20/05 A3019 RMK A01 T01950047  RH  038%=      5-min Rain = 0
KBY1 091820Z 28005KT 20/05 A3019 RMK A01 T01950048  RH  038%=      5-min Rain = 0
KBY1 091821Z 24003KT 20/05 A3019 RMK A01 T01960048  RH  038%=      5-min Rain = 0
KBY1 091822Z 29004KT 20/05 A3019 RMK A01 T01970046  RH  037%=      5-min Rain = 0
KBY1 091823Z 30003KT 20/04 A3018 RMK A01 T01980044  RH  036%=      5-min Rain = 0
KBY1 091824Z 30003KT 20/04 A3018 RMK A01 T01980044  RH  036%=      5-min Rain = 0
KBY1 091825Z 32003KT 20/04 A3018 RMK A01 T01980044  RH  036%=      5-min Rain = 0
KBY1 091826Z 24005KT 20/04 A3018 RMK A01 T01970044  RH  037%=      5-min Rain = 0
KBY1 091827Z 23005KT 20/05 A3018 RMK A01 T02000047  RH  036%=      5-min Rain = 0
KBY1 091828Z 21006KT 20/04 A3018 RMK A01 T02020043  RH  035%=      5-min Rain = 0
KBY1 091829Z 22006KT 20/04 A3018 RMK A01 T02040041  RH  034%=      5-min Rain = 0
KBY1 091830Z 22004KT 20/04 A3018 RMK A01 T02030041  RH  034%=      5-min Rain = 0
KBY1 091831Z 22004KT 20/04 A3018 RMK A01 T02030042  RH  035%=      5-min Rain = 0
KBY1 091832Z 22004KT 20/04 A3018 RMK A01 T02030040  RH  034%=      5-min Rain = 0
KBY1 091833Z 21003KT 20/04 A3017 RMK A01 T02040042  RH  035%=      5-min Rain = 0
KBY1 091834Z 20003KT 20/04 A3017 RMK A01 T02040043  RH  035%=      5-min Rain = 0
KBY1 091835Z 21004KT 21/04 A3017 RMK A01 T02050043  RH  034%=      5-min Rain = 0
KBY1 091836Z 22006KT 21/04 A3017 RMK A01 T02060043  RH  034%=      5-min Rain = 0
KBY1 091837Z 23006KT 21/04 A3017 RMK A01 T02080036  RH  032%=      5-min Rain = 0
KBY1 091838Z 24007KT 21/03 A3017 RMK A01 T02090032  RH  031%=      5-min Rain = 0
KBY1 091839Z 26005KT 21/03 A3017 RMK A01 T02090032  RH  031%=      5-min Rain = 0
KBY1 091840Z 23005KT 21/03 A3017 RMK A01 T02100033  RH  031%=      5-min Rain = 0
KBY1 091841Z 21004KT 21/04 A3017 RMK A01 T02090036  RH  032%=      5-min Rain = 0
KBY1 091842Z 21006KT 21/04 A3017 RMK A01 T02110038  RH  032%=      5-min Rain = 0
KBY1 091843Z 19004KT 21/04 A3017 RMK A01 T02120039  RH  032%=      5-min Rain = 0
KBY1 091844Z 20004KT 21/04 A3017 RMK A01 T02130038  RH  032%=      5-min Rain = 0
KBY1 091845Z 26004KT 22/04 A3016 RMK A01 T02150039  RH  032%=      5-min Rain = 0
KBY1 091846Z 28003KT 22/04 A3016 RMK A01 T02170035  RH  030%=      5-min Rain = 0
KBY1 091847Z 29004KT 22/04 A3016 RMK A01 T02170036  RH  030%=      5-min Rain = 0
KBY1 091848Z 30005KT 22/04 A3016 RMK A01 T02170036  RH  030%=      5-min Rain = 0
KBY1 091849Z 28006KT 22/04 A3016 RMK A01 T02170038  RH  031%=      5-min Rain = 0
KBY1 091850Z 26006KT 22/03 A3016 RMK A01 T02170034  RH  030%=      5-min Rain = 0
KBY1 091851Z 25005KT 22/03 A3016 RMK A01 T02150033  RH  030%=      5-min Rain = 0
KBY1 091852Z 23004KT 21/03 A3016 RMK A01 T02140034  RH  031%=      5-min Rain = 0
KBY1 091853Z 25003KT 22/03 A3016 RMK A01 T02150033  RH  030%=      5-min Rain = 0
KBY1 091854Z 28005KT 22/03 A3016 RMK A01 T02160029  RH  029%=      5-min Rain = 0
KBY1 091855Z 29007KT 22/03 A3016 RMK A01 T02180027  RH  028%=      5-min Rain = 0
KBY1 091856Z 29005KT 22/03 A3016 RMK A01 T02180025  RH  028%=      5-min Rain = 0
KBY1 091857Z 29004KT 22/03 A3016 RMK A01 T02170027  RH  029%=      5-min Rain = 0
KBY1 091858Z 27006KT 22/02 A3016 RMK A01 T02190024  RH  028%=      5-min Rain = 0
KBY1 091859Z 25006KT 22/02 A3015 RMK A01 T02190020  RH  027%=      5-min Rain = 0
KBY1 091900Z 24004KT 22/02 A3015 RMK A01 T02190023  RH  027%=      5-min Rain = 0
KBY1 091901Z 24009KT 22/02 A3015 RMK A01 T02200023  RH  027%=      5-min Rain = 0
KBY1 091902Z 23007KT 22/02 A3015 RMK A01 T02210020  RH  026%=      5-min Rain = 0
KBY1 091903Z 23006KT 22/02 A3015 RMK A01 T02210020  RH  026%=      5-min Rain = 0
KBY1 091904Z 25004KT 22/02 A3015 RMK A01 T02210017  RH  026%=      5-min Rain = 0
KBY1 091905Z 27006KT 22/01 A3015 RMK A01 T02210013  RH  025%=      5-min Rain = 0
KBY1 091906Z 27002KT 22/01 A3015 RMK A01 T02210013  RH  025%=      5-min Rain = 0
KBY1 091907Z 28001KT 22/01 A3015 RMK A01 T02210014  RH  025%=      5-min Rain = 0
KBY1 091908Z 27006KT 22/01 A3015 RMK A01 T02230014  RH  025%=      5-min Rain = 0
KBY1 091909Z 27007KT 22/02 A3015 RMK A01 T02240015  RH  025%=      5-min Rain = 0
KBY1 091910Z 26006KT 23/02 A3015 RMK A01 T02250017  RH  025%=      5-min Rain = 0
KBY1 091911Z 26007KT 23/02 A3015 RMK A01 T02270018  RH  025%=      5-min Rain = 0
KBY1 091912Z 27005KT 23/02 A3015 RMK A01 T02270015  RH  025%=      5-min Rain = 0
KBY1 091913Z 30002KT 23/02 A3015 RMK A01 T02250015  RH  025%=      5-min Rain = 0
KBY1 091914Z 29003KT 22/02 A3014 RMK A01 T02240015  RH  025%=      5-min Rain = 0
KBY1 091915Z 34003KT 23/02 A3014 RMK A01 T02250015  RH  025%=      5-min Rain = 0
KBY1 091916Z 31003KT 22/02 A3014 RMK A01 T02240015  RH  025%=      5-min Rain = 0
KBY1 091917Z 26006KT 23/02 A3014 RMK A01 T02250015  RH  025%=      5-min Rain = 0
KBY1 091918Z 26007KT 23/02 A3014 RMK A01 T02270015  RH  025%=      5-min Rain = 0
KBY1 091919Z 26004KT 23/01 A3014 RMK A01 T02270013  RH  024%=      5-min Rain = 0
KBY1 091920Z 33001KT 23/01 A3014 RMK A01 T02270014  RH  024%=      5-min Rain = 0
KBY1 091921Z 34001KT 23/01 A3014 RMK A01 T02270013  RH  024%=      5-min Rain = 0
KBY1 091922Z 30003KT 23/01 A3014 RMK A01 T02280013  RH  024%=      5-min Rain = 0
KBY1 091923Z 31001KT 23/01 A3014 RMK A01 T02290013  RH  024%=      5-min Rain = 0
KBY1 091924Z 26004KT 23/01 A3014 RMK A01 T02290013  RH  024%=      5-min Rain = 0
KBY1 091925Z 28004KT 23/02 A3014 RMK A01 T02300015  RH  024%=      5-min Rain = 0
KBY1 091926Z 27003KT 23/02 A3014 RMK A01 T02320016  RH  024%=      5-min Rain = 0
KBY1 091927Z 29004KT 23/02 A3013 RMK A01 T02330015  RH  024%=      5-min Rain = 0
KBY1 091928Z 26004KT 24/02 A3013 RMK A01 T02350015  RH  024%=      5-min Rain = 0
KBY1 091929Z 26004KT 24/01 A3013 RMK A01 T02350014  RH  023%=      5-min Rain = 0
KBY1 091930Z 27004KT 23/02 A3013 RMK A01 T02340015  RH  024%=      5-min Rain = 0
KBY1 091931Z 24005KT 24/02 A3013 RMK A01 T02360018  RH  024%=      5-min Rain = 0
KBY1 091932Z 25007KT 24/02 A3013 RMK A01 T02390017  RH  023%=      5-min Rain = 0
KBY1 091933Z 25007KT 24/01 A3013 RMK A01 T02390013  RH  023%=      5-min Rain = 0
KBY1 091934Z 22005KT 24/01 A3013 RMK A01 T02360012  RH  023%=      5-min Rain = 0
KBY1 091935Z 25006KT 24/01 A3013 RMK A01 T02350013  RH  023%=      5-min Rain = 0
KBY1 091936Z 25005KT 24/01 A3013 RMK A01 T02350013  RH  023%=      5-min Rain = 0
KBY1 091937Z 26005KT 24/01 A3013 RMK A01 T02360013  RH  023%=      5-min Rain = 0
KBY1 091938Z 24004KT 24/01 A3013 RMK A01 T02370012  RH  023%=      5-min Rain = 0
KBY1 091939Z 25005KT 24/01 A3013 RMK A01 T02360011  RH  023%=      5-min Rain = 0
KBY1 091940Z 26003KT 24/01 A3013 RMK A01 T02350012  RH  023%=      5-min Rain = 0
KBY1 091941Z 25006KT 24/01 A3013 RMK A01 T02350012  RH  023%=      5-min Rain = 0
KBY1 091942Z 26007KT 24/01 A3012 RMK A01 T02370013  RH  023%=      5-min Rain = 0
KBY1 091943Z 27006KT 24/01 A3012 RMK A01 T02370012  RH  023%=      5-min Rain = 0
KBY1 091944Z 27008KT 24/01 A3012 RMK A01 T02370012  RH  023%=      5-min Rain = 0
KBY1 091945Z 27007KT 24/01 A3012 RMK A01 T02380011  RH  022%=      5-min Rain = 0
KBY1 091946Z 26008KT 24/01 A3012 RMK A01 T02380010  RH  022%=      5-min Rain = 0
KBY1 091947Z 25007KT 24/01 A3012 RMK A01 T02380009  RH  022%=      5-min Rain = 0
KBY1 091948Z 24007KT 24/01 A3012 RMK A01 T02390009  RH  022%=      5-min Rain = 0
KBY1 091949Z 21006KT 24/01 A3012 RMK A01 T02400008  RH  022%=      5-min Rain = 0
KBY1 091950Z 22006KT 24/01 A3012 RMK A01 T02400006  RH  021%=      5-min Rain = 0
KBY1 091951Z 23006KT 24/01 A3012 RMK A01 T02420008  RH  021%=      5-min Rain = 0
KBY1 091952Z 24005KT 24/01 A3012 RMK A01 T02430008  RH  021%=      5-min Rain = 0
KBY1 091953Z 25004KT 24/01 A3012 RMK A01 T02440010  RH  021%=      5-min Rain = 0
KBY1 091954Z 27004KT 24/01 A3011 RMK A01 T02440011  RH  022%=      5-min Rain = 0
KBY1 091955Z 27004KT 24/01 A3011 RMK A01 T02440010  RH  022%=      5-min Rain = 0
KBY1 091956Z 25003KT 24/01 A3011 RMK A01 T02430009  RH  021%=      5-min Rain = 0
KBY1 091957Z 23003KT 24/01 A3011 RMK A01 T02430008  RH  021%=      5-min Rain = 0
KBY1 091958Z 17001KT 24/01 A3011 RMK A01 T02420005  RH  021%=      5-min Rain = 0
KBY1 091959Z 19004KT 24/01 A3011 RMK A01 T02410006  RH  021%=      5-min Rain = 0
KBY1 092000Z 22004KT 24/01 A3011 RMK A01 T02410007  RH  021%=      5-min Rain = 0
KBY1 092001Z 24005KT 24/00 A3011 RMK A01 T02410003  RH  021%=      5-min Rain = 0
KBY1 092002Z 24003KT 24/00 A3011 RMK A01 T02400003  RH  021%=      5-min Rain = 0
KBY1 092003Z 19003KT 24/01 A3011 RMK A01 T02420005  RH  021%=      5-min Rain = 0
KBY1 092004Z 21003KT 25/01 A3011 RMK A01 T02450005  RH  021%=      5-min Rain = 0
KBY1 092005Z 23004KT 25/01 A3011 RMK A01 T02470005  RH  020%=      5-min Rain = 0
KBY1 092006Z 25004KT 25/00 A3011 RMK A01 T02480003  RH  020%=      5-min Rain = 0
KBY1 092007Z 22005G10KT 25/00 A3011 RMK A01 T02470002  RH  020%=      5-min Rain = 0
KBY1 092008Z 19008KT 25/M01 A3011 RMK A01 T02491013  RH  018%=      5-min Rain = 0
KBY1 092009Z 20006KT 25/M03 A3011 RMK A01 T02531029  RH  015%=      5-min Rain = 0
KBY1 092010Z 19008KT 25/M03 A301 RMK A01 T02531031  RH  015%=      5-min Rain = 0
KBY1 092011Z 19007KT 25/M03 A301 RMK A01 T02531034  RH  015%=      5-min Rain = 0
KBY1 092012Z 19009KT 25/M03 A301 RMK A01 T02541034  RH  015%=      5-min Rain = 0
KBY1 092013Z 19011KT 26/M04 A301 RMK A01 T02551036  RH  014%=      5-min Rain = 0
KBY1 092014Z 19010KT 26/M04 A301 RMK A01 T02551035  RH  014%=      5-min Rain = 0
KBY1 092015Z 19011KT 26/M04 A301 RMK A01 T02561038  RH  014%=      5-min Rain = 0
KBY1 092016Z 21010KT 26/M04 A301 RMK A01 T02551040  RH  014%=      5-min Rain = 0
KBY1 092017Z 19010KT 25/M04 A301 RMK A01 T02541042  RH  014%=      5-min Rain = 0
KBY1 092018Z 18008KT 25/M05 A301 RMK A01 T02541046  RH  013%=      5-min Rain = 0
KBY1 092019Z 21010KT 25/M04 A301 RMK A01 T02541044  RH  014%=      5-min Rain = 0
KBY1 092020Z 20007KT 26/M05 A301 RMK A01 T02551047  RH  013%=      5-min Rain = 0
KBY1 092021Z 20008KT 26/M05 A301 RMK A01 T02551047  RH  013%=      5-min Rain = 0
KBY1 092022Z 21006KT 26/M05 A301 RMK A01 T02551046  RH  013%=      5-min Rain = 0
KBY1 092023Z 20007KT 26/M05 A301 RMK A01 T02551046  RH  013%=      5-min Rain = 0
KBY1 092024Z 20005KT 26/M05 A301 RMK A01 T02551047  RH  013%=      5-min Rain = 0
KBY1 092025Z 19008G13KT 26/M05 A301 RMK A01 T02551046  RH  013%=      5-min Rain = 0
KBY1 092026Z 19007KT 26/M05 A301 RMK A01 T02561046  RH  013%=      5-min Rain = 0
KBY1 092027Z 19009KT 26/M04 A301 RMK A01 T02571044  RH  013%=      5-min Rain = 0
KBY1 092028Z 20009KT 26/M04 A301 RMK A01 T02581044  RH  013%=      5-min Rain = 0
KBY1 092029Z 17009KT 26/M04 A301 RMK A01 T02571041  RH  014%=      5-min Rain = 0
KBY1 092030Z 17010KT 26/M04 A301 RMK A01 T02581043  RH  013%=      5-min Rain = 0
KBY1 092031Z 17008KT 26/M04 A301 RMK A01 T02571039  RH  014%=      5-min Rain = 0
KBY1 092032Z 19008KT 26/M04 A301 RMK A01 T02591038  RH  014%=      5-min Rain = 0
KBY1 092033Z 20008KT 26/M04 A301 RMK A01 T02611041  RH  013%=      5-min Rain = 0
KBY1 092034Z 21006KT 26/M04 A3009 RMK A01 T02611042  RH  013%=      5-min Rain = 0
KBY1 092035Z 20009KT 26/M04 A3009 RMK A01 T02621038  RH  014%=      5-min Rain = 0
KBY1 092036Z 19009KT 26/M04 A3009 RMK A01 T02641038  RH  013%=      5-min Rain = 0
KBY1 092037Z 20009KT 26/M04 A3009 RMK A01 T02631036  RH  014%=      5-min Rain = 0
KBY1 092038Z 19008KT 26/M04 A3009 RMK A01 T02621038  RH  014%=      5-min Rain = 0
KBY1 092039Z 18011KT 26/M04 A3009 RMK A01 T02601039  RH  014%=      5-min Rain = 0
KBY1 092040Z 18009KT 26/M04 A3009 RMK A01 T02581042  RH  014%=      5-min Rain = 0
KBY1 092041Z 18007KT 26/M04 A3009 RMK A01 T02571041  RH  014%=      5-min Rain = 0
KBY1 092042Z 19007KT 26/M04 A3009 RMK A01 T02561038  RH  014%=      5-min Rain = 0
KBY1 092043Z 20008KT 26/M04 A3009 RMK A01 T02571038  RH  014%=      5-min Rain = 0
KBY1 092044Z 20009KT 26/M04 A3009 RMK A01 T02601043  RH  013%=      5-min Rain = 0
KBY1 092045Z 20008KT 26/M04 A3009 RMK A01 T02601043  RH  013%=      5-min Rain = 0
KBY1 092046Z 20009KT 26/M04 A3009 RMK A01 T02611043  RH  013%=      5-min Rain = 0
KBY1 092047Z 19009KT 26/M04 A3009 RMK A01 T02611044  RH  013%=      5-min Rain = 0
KBY1 092048Z 19008KT 26/M05 A3009 RMK A01 T02571045  RH  013%=      5-min Rain = 0
KBY1 092049Z 20013KT 26/M04 A3009 RMK A01 T02561040  RH  014%=      5-min Rain = 0
KBY1 092050Z 20010KT 26/M03 A3009 RMK A01 T02561034  RH  014%=      5-min Rain = 0
KBY1 092051Z 19010KT 26/M03 A3009 RMK A01 T02561031  RH  015%=      5-min Rain = 0
KBY1 092052Z 19011KT 26/M03 A3009 RMK A01 T02561029  RH  015%=      5-min Rain = 0
KBY1 092053Z 18009KT 26/M03 A3009 RMK A01 T02561031  RH  015%=      5-min Rain = 0
KBY1 092054Z 17011KT 26/M03 A3009 RMK A01 T02561031  RH  015%=      5-min Rain = 0
KBY1 092055Z 18009KT 26/M03 A3009 RMK A01 T02561032  RH  015%=      5-min Rain = 0
KBY1 092056Z 18008KT 26/M03 A3009 RMK A01 T02571032  RH  015%=      5-min Rain = 0
KBY1 092057Z 19012KT 26/M03 A3009 RMK A01 T02571031  RH  015%=      5-min Rain = 0
KBY1 092058Z 20012KT 26/M03 A3009 RMK A01 T02571029  RH  015%=      5-min Rain = 0
KBY1 092059Z 19010KT 26/M03 A3009 RMK A01 T02561031  RH  015%=      5-min Rain = 0
KBY1 092100Z 19010KT 26/M03 A3009 RMK A01 T02551030  RH  015%=      5-min Rain = 0
KBY1 092101Z 20007KT 26/M03 A3009 RMK A01 T02551031  RH  015%=      5-min Rain = 0
KBY1 092102Z 21007KT 26/M03 A3009 RMK A01 T02551033  RH  015%=      5-min Rain = 0
KBY1 092103Z 21008G13KT 26/M03 A3008 RMK A01 T02551034  RH  015%=      5-min Rain = 0
KBY1 092104Z 19011KT 26/M03 A3008 RMK A01 T02551033  RH  015%=      5-min Rain = 0
KBY1 092105Z 19009KT 26/M03 A3008 RMK A01 T02551034  RH  015%=      5-min Rain = 0
KBY1 092106Z 20005KT 26/M03 A3008 RMK A01 T02551033  RH  015%=      5-min Rain = 0
KBY1 092107Z 19009KT 26/M03 A3008 RMK A01 T02581032  RH  014%=      5-min Rain = 0
KBY1 092108Z 19008KT 26/M04 A3008 RMK A01 T02591038  RH  014%=      5-min Rain = 0
KBY1 092109Z 20008KT 26/M04 A3008 RMK A01 T02571040  RH  014%=      5-min Rain = 0
KBY1 092110Z 20006KT 26/M04 A3008 RMK A01 T02561038  RH  014%=      5-min Rain = 0
KBY1 092111Z 21007KT 26/M04 A3008 RMK A01 T02571037  RH  014%=      5-min Rain = 0
KBY1 092112Z 20009KT 26/M04 A3008 RMK A01 T02571035  RH  014%=      5-min Rain = 0
KBY1 092113Z 20008KT 26/M03 A3008 RMK A01 T02581033  RH  014%=      5-min Rain = 0
KBY1 092114Z 21008KT 26/M04 A3008 RMK A01 T02581038  RH  014%=      5-min Rain = 0
KBY1 092115Z 21008KT 26/M04 A3008 RMK A01 T02591036  RH  014%=      5-min Rain = 0
KBY1 092116Z 19010KT 26/M04 A3008 RMK A01 T02601038  RH  014%=      5-min Rain = 0
KBY1 092117Z 19009KT 26/M04 A3008 RMK A01 T02591039  RH  014%=      5-min Rain = 0
KBY1 092118Z 19008KT 26/M04 A3008 RMK A01 T02581038  RH  014%=      5-min Rain = 0
KBY1 092119Z 20008KT 26/M04 A3008 RMK A01 T02581038  RH  014%=      5-min Rain = 0
KBY1 092120Z 21008KT 26/M04 A3008 RMK A01 T02581037  RH  014%=      5-min Rain = 0
KBY1 092121Z 20007KT 26/M04 A3008 RMK A01 T02581038  RH  014%=      5-min Rain = 0
KBY1 092122Z 20006KT 26/M04 A3008 RMK A01 T02581037  RH  014%=      5-min Rain = 0
KBY1 092123Z 20005KT 26/M04 A3008 RMK A01 T02581036  RH  014%=      5-min Rain = 0
KBY1 092124Z 19006KT 26/M04 A3008 RMK A01 T02601036  RH  014%=      5-min Rain = 0
KBY1 092125Z 18007KT 26/M03 A3008 RMK A01 T02611034  RH  014%=      5-min Rain = 0
KBY1 092126Z 18008KT 26/M03 A3008 RMK A01 T02621034  RH  014%=      5-min Rain = 0
KBY1 092127Z 18010KT 26/M04 A3008 RMK A01 T02611037  RH  014%=      5-min Rain = 0
KBY1 092128Z 18011KT 26/M04 A3007 RMK A01 T02591039  RH  014%=      5-min Rain = 0
KBY1 092129Z 19010KT 26/M04 A3008 RMK A01 T02571035  RH  014%=      5-min Rain = 0
KBY1 092130Z 20010KT 26/M04 A3008 RMK A01 T02571035  RH  014%=      5-min Rain = 0
KBY1 092131Z 19009KT 26/M04 A3007 RMK A01 T02571037  RH  014%=      5-min Rain = 0
KBY1 092132Z 18009KT 26/M04 A3007 RMK A01 T02581039  RH  014%=      5-min Rain = 0
KBY1 092133Z 20010KT 26/M04 A3007 RMK A01 T02581040  RH  014%=      5-min Rain = 0
KBY1 092134Z 21010KT 26/M04 A3007 RMK A01 T02581041  RH  014%=      5-min Rain = 0
KBY1 092135Z 21011KT 26/M04 A3007 RMK A01 T02581041  RH  014%=      5-min Rain = 0
KBY1 092136Z 22010KT 26/M04 A3007 RMK A01 T02581042  RH  013%=      5-min Rain = 0
KBY1 092137Z 22009KT 26/M04 A3007 RMK A01 T02561042  RH  014%=      5-min Rain = 0
KBY1 092138Z 20010KT 26/M04 A3007 RMK A01 T02571038  RH  014%=      5-min Rain = 0
KBY1 092139Z 19008KT 26/M04 A3007 RMK A01 T02571037  RH  014%=      5-min Rain = 0
KBY1 092140Z 18011KT 26/M04 A3007 RMK A01 T02591040  RH  014%=      5-min Rain = 0
KBY1 092141Z 19010KT 26/M04 A3007 RMK A01 T02581041  RH  014%=      5-min Rain = 0
KBY1 092142Z 19009KT 26/M04 A3007 RMK A01 T02571041  RH  014%=      5-min Rain = 0
KBY1 092143Z 20009KT 26/M04 A3007 RMK A01 T02581039  RH  014%=      5-min Rain = 0
KBY1 092144Z 20010KT 26/M04 A3007 RMK A01 T02591037  RH  014%=      5-min Rain = 0
KBY1 092145Z 20011KT 26/M04 A3007 RMK A01 T02591037  RH  014%=      5-min Rain = 0
KBY1 092146Z 21012KT 26/M04 A3007 RMK A01 T02581038  RH  014%=      5-min Rain = 0
KBY1 092147Z 21011KT 26/M04 A3007 RMK A01 T02571037  RH  014%=      5-min Rain = 0
KBY1 092148Z 21011KT 26/M04 A3007 RMK A01 T02561036  RH  014%=      5-min Rain = 0
KBY1 092149Z 21011KT 26/M04 A3007 RMK A01 T02561037  RH  014%=      5-min Rain = 0
KBY1 092150Z 19008KT 26/M04 A3007 RMK A01 T02551037  RH  014%=      5-min Rain = 0
KBY1 092151Z 21011KT 26/M04 A3007 RMK A01 T02561036  RH  014%=      5-min Rain = 0
KBY1 092152Z 21010KT 26/M04 A3007 RMK A01 T02571038  RH  014%=      5-min Rain = 0
KBY1 092153Z 21009KT 26/M04 A3007 RMK A01 T02571037  RH  014%=      5-min Rain = 0
KBY1 092154Z 20011KT 26/M04 A3007 RMK A01 T02571040  RH  014%=      5-min Rain = 0
KBY1 092155Z 21011KT 26/M04 A3007 RMK A01 T02571041  RH  014%=      5-min Rain = 0
KBY1 092156Z 21009KT 26/M04 A3007 RMK A01 T02561039  RH  014%=      5-min Rain = 0
KBY1 092157Z 22012KT 26/M04 A3007 RMK A01 T02571038  RH  014%=      5-min Rain = 0
KBY1 092158Z 22012KT 26/M04 A3007 RMK A01 T02571040  RH  014%=      5-min Rain = 0
KBY1 092159Z 20010KT 26/M04 A3007 RMK A01 T02551040  RH  014%=      5-min Rain = 0
KBY1 092200Z 21009KT 26/M04 A3006 RMK A01 T02551039  RH  014%=      5-min Rain = 0
KBY1 092201Z 21010KT 26/M04 A3006 RMK A01 T02551038  RH  014%=      5-min Rain = 0
KBY1 092202Z 21008KT 26/M04 A3006 RMK A01 T02551039  RH  014%=      5-min Rain = 0
KBY1 092203Z 20008KT 26/M04 A3006 RMK A01 T02561038  RH  014%=      5-min Rain = 0
KBY1 092204Z 20008KT 26/M04 A3006 RMK A01 T02571040  RH  014%=      5-min Rain = 0
KBY1 092205Z 20008KT 26/M04 A3006 RMK A01 T02561040  RH  014%=      5-min Rain = 0
KBY1 092206Z 18009KT 26/M04 A3006 RMK A01 T02561040  RH  014%=      5-min Rain = 0
KBY1 092207Z 19008KT 26/M04 A3006 RMK A01 T02551040  RH  014%=      5-min Rain = 0
KBY1 092208Z 19010KT 26/M04 A3006 RMK A01 T02551042  RH  014%=      5-min Rain = 0
KBY1 092209Z 18010KT 26/M04 A3006 RMK A01 T02551044  RH  014%=      5-min Rain = 0
KBY1 092210Z 19011KT 26/M04 A3006 RMK A01 T02551044  RH  014%=      5-min Rain = 0
KBY1 092211Z 18010KT 26/M05 A3006 RMK A01 T02551046  RH  013%=      5-min Rain = 0
KBY1 092212Z 18011KT 25/M05 A3006 RMK A01 T02541046  RH  013%=      5-min Rain = 0
KBY1 092213Z 19010KT 25/M05 A3006 RMK A01 T02531045  RH  014%=      5-min Rain = 0
KBY1 092214Z 19009KT 25/M04 A3006 RMK A01 T02531044  RH  014%=      5-min Rain = 0
KBY1 092215Z 19011KT 25/M05 A3006 RMK A01 T02531047  RH  013%=      5-min Rain = 0
KBY1 092216Z 20011KT 25/M05 A3006 RMK A01 T02541048  RH  013%=      5-min Rain = 0
KBY1 092217Z 20010KT 25/M05 A3006 RMK A01 T02531048  RH  013%=      5-min Rain = 0
KBY1 092218Z 20011KT 25/M05 A3006 RMK A01 T02541047  RH  013%=      5-min Rain = 0
KBY1 092219Z 21012KT 25/M05 A3006 RMK A01 T02531049  RH  013%=      5-min Rain = 0
KBY1 092220Z 21012KT 25/M05 A3006 RMK A01 T02531050  RH  013%=      5-min Rain = 0
KBY1 092221Z 20010KT 25/M05 A3006 RMK A01 T02521048  RH  013%=      5-min Rain = 0
KBY1 092222Z 20007KT 25/M05 A3006 RMK A01 T02521046  RH  014%=      5-min Rain = 0
KBY1 092223Z 20008KT 25/M05 A3006 RMK A01 T02521046  RH  014%=      5-min Rain = 0
KBY1 092224Z 20007KT 25/M05 A3006 RMK A01 T02531045  RH  014%=      5-min Rain = 0
KBY1 092225Z 21009KT 25/M04 A3006 RMK A01 T02541044  RH  014%=      5-min Rain = 0
KBY1 092226Z 20010KT 25/M04 A3006 RMK A01 T02541042  RH  014%=      5-min Rain = 0
KBY1 092227Z 20009KT 25/M04 A3006 RMK A01 T02541041  RH  014%=      5-min Rain = 0
KBY1 092228Z 19008KT 25/M04 A3006 RMK A01 T02531039  RH  014%=      5-min Rain = 0
KBY1 092229Z 19008KT 25/M04 A3006 RMK A01 T02531038  RH  014%=      5-min Rain = 0
KBY1 092230Z 19008KT 25/M04 A3006 RMK A01 T02531038  RH  014%=      5-min Rain = 0
KBY1 092231Z 20008KT 25/M04 A3006 RMK A01 T02521037  RH  014%=      5-min Rain = 0
KBY1 092232Z 20010KT 25/M04 A3005 RMK A01 T02521038  RH  014%=      5-min Rain = 0
KBY1 092233Z 20008KT 25/M04 A3006 RMK A01 T02521039  RH  014%=      5-min Rain = 0
KBY1 092234Z 20009KT 25/M04 A3005 RMK A01 T02521037  RH  015%=      5-min Rain = 0
KBY1 092235Z 20010KT 25/M04 A3006 RMK A01 T02521037  RH  015%=      5-min Rain = 0
KBY1 092236Z 20010KT 25/M04 A3005 RMK A01 T02511037  RH  015%=      5-min Rain = 0
KBY1 092237Z 21008KT 25/M04 A3006 RMK A01 T02511036  RH  015%=      5-min Rain = 0
KBY1 092238Z 20007KT 25/M04 A3005 RMK A01 T02511036  RH  015%=      5-min Rain = 0
KBY1 092239Z 21007KT 25/M04 A3005 RMK A01 T02511036  RH  015%=      5-min Rain = 0
KBY1 092240Z 21011KT 25/M04 A3005 RMK A01 T02511037  RH  015%=      5-min Rain = 0
KBY1 092241Z 20008KT 25/M04 A3005 RMK A01 T02501039  RH  014%=      5-min Rain = 0
KBY1 092242Z 20007KT 25/M04 A3005 RMK A01 T02501038  RH  015%=      5-min Rain = 0
KBY1 092243Z 19006KT 25/M04 A3005 RMK A01 T02491038  RH  015%=      5-min Rain = 0
KBY1 092244Z 20008KT 25/M04 A3005 RMK A01 T02491037  RH  015%=      5-min Rain = 0
KBY1 092245Z 20008KT 25/M04 A3005 RMK A01 T02491037  RH  015%=      5-min Rain = 0
KBY1 092246Z 20007KT 25/M04 A3005 RMK A01 T02481038  RH  015%=      5-min Rain = 0
KBY1 092247Z 19008KT 25/M04 A3005 RMK A01 T02481038  RH  015%=      5-min Rain = 0
KBY1 092248Z 20008KT 25/M04 A3005 RMK A01 T02471039  RH  015%=      5-min Rain = 0
KBY1 092249Z 19006KT 25/M04 A3005 RMK A01 T02471039  RH  015%=      5-min Rain = 0
KBY1 092250Z 19009KT 25/M04 A3005 RMK A01 T02471038  RH  015%=      5-min Rain = 0
KBY1 092251Z 20008KT 25/M04 A3005 RMK A01 T02461038  RH  015%=      5-min Rain = 0
KBY1 092252Z 20007KT 25/M04 A3005 RMK A01 T02461037  RH  015%=      5-min Rain = 0
KBY1 092253Z 20007KT 25/M04 A3005 RMK A01 T02451037  RH  015%=      5-min Rain = 0
KBY1 092254Z 20006KT 25/M04 A3005 RMK A01 T02451037  RH  015%=      5-min Rain = 0
KBY1 092255Z 19006KT 25/M04 A3005 RMK A01 T02451036  RH  015%=      5-min Rain = 0
KBY1 092256Z 20007KT 24/M04 A3005 RMK A01 T02441036  RH  015%=      5-min Rain = 0
KBY1 092257Z 19006KT 24/M04 A3005 RMK A01 T02441036  RH  015%=      5-min Rain = 0
KBY1 092258Z 20007KT 24/M04 A3005 RMK A01 T02431035  RH  015%=      5-min Rain = 0
KBY1 092259Z 20006KT 24/M04 A3005 RMK A01 T02431037  RH  015%=      5-min Rain = 0
KBY1 092300Z 20006KT 24/M04 A3005 RMK A01 T02431036  RH  016%=      5-min Rain = 0
KBY1 092301Z 20005KT 24/M04 A3005 RMK A01 T02421036  RH  016%=      5-min Rain = 0
KBY1 092302Z 19006KT 24/M04 A3005 RMK A01 T02421035  RH  016%=      5-min Rain = 0
KBY1 092303Z 20007KT 24/M04 A3005 RMK A01 T02411036  RH  016%=      5-min Rain = 0
KBY1 092304Z 20007KT 24/M04 A3005 RMK A01 T02411036  RH  016%=      5-min Rain = 0
KBY1 092305Z 20007KT 24/M04 A3005 RMK A01 T02401035  RH  016%=      5-min Rain = 0
KBY1 092306Z 20007KT 24/M03 A3005 RMK A01 T02391034  RH  016%=      5-min Rain = 0
KBY1 092307Z 20006KT 24/M04 A3006 RMK A01 T02381035  RH  016%=      5-min Rain = 0
KBY1 092308Z 20005KT 24/M03 A3006 RMK A01 T02381034  RH  016%=      5-min Rain = 0
KBY1 092309Z 20006KT 24/M03 A3006 RMK A01 T02371034  RH  016%=      5-min Rain = 0
KBY1 092310Z 20006KT 24/M03 A3006 RMK A01 T02371034  RH  016%=      5-min Rain = 0
KBY1 092311Z 20005KT 24/M03 A3006 RMK A01 T02361034  RH  016%=      5-min Rain = 0
KBY1 092312Z 19006KT 24/M03 A3006 RMK A01 T02351034  RH  016%=      5-min Rain = 0
KBY1 092313Z 20006KT 23/M03 A3005 RMK A01 T02341033  RH  017%=      5-min Rain = 0
KBY1 092314Z 21006KT 23/M03 A3005 RMK A01 T02331033  RH  017%=      5-min Rain = 0
KBY1 092315Z 20007KT 23/M03 A3005 RMK A01 T02321033  RH  017%=      5-min Rain = 0
KBY1 092316Z 20006KT 23/M03 A3005 RMK A01 T02311033  RH  017%=      5-min Rain = 0
KBY1 092317Z 20006KT 23/M03 A3005 RMK A01 T02311033  RH  017%=      5-min Rain = 0
KBY1 092318Z 20006KT 23/M03 A3005 RMK A01 T02301034  RH  017%=      5-min Rain = 0
KBY1 092319Z 21006KT 23/M03 A3005 RMK A01 T02291033  RH  017%=      5-min Rain = 0
KBY1 092320Z 21006KT 23/M03 A3005 RMK A01 T02271033  RH  017%=      5-min Rain = 0
KBY1 092321Z 21006KT 23/M03 A3005 RMK A01 T02261033  RH  018%=      5-min Rain = 0
KBY1 092322Z 20006KT 23/M03 A3005 RMK A01 T02251033  RH  018%=      5-min Rain = 0
KBY1 092323Z 20006KT 22/M03 A3005 RMK A01 T02231033  RH  018%=      5-min Rain = 0
KBY1 092324Z 20006KT 22/M03 A3005 RMK A01 T02221033  RH  018%=      5-min Rain = 0
KBY1 092325Z 21005KT 22/M03 A3005 RMK A01 T02201034  RH  018%=      5-min Rain = 0
KBY1 092326Z 21005KT 22/M03 A3005 RMK A01 T02191034  RH  018%=      5-min Rain = 0
KBY1 092327Z 20005KT 22/M03 A3005 RMK A01 T02181034  RH  018%=      5-min Rain = 0
KBY1 092328Z 20005KT 22/M03 A3005 RMK A01 T02161034  RH  018%=      5-min Rain = 0
KBY1 092329Z 20004KT 22/M03 A3005 RMK A01 T02151034  RH  019%=      5-min Rain = 0
KBY1 092330Z 20005KT 21/M04 A3005 RMK A01 T02141035  RH  019%=      5-min Rain = 0
KBY1 092331Z 20005KT 21/M03 A3005 RMK A01 T02121034  RH  019%=      5-min Rain = 0
KBY1 092332Z 20004KT 21/M04 A3005 RMK A01 T02111035  RH  019%=      5-min Rain = 0
KBY1 092333Z 21004KT 21/M04 A3005 RMK A01 T02091035  RH  019%=      5-min Rain = 0
KBY1 092334Z 21004KT 21/M04 A3006 RMK A01 T02071035  RH  019%=      5-min Rain = 0
KBY1 092335Z 21004KT 21/M04 A3005 RMK A01 T02061035  RH  020%=      5-min Rain = 0
KBY1 092336Z 20004KT 21/M04 A3006 RMK A01 T02051035  RH  020%=      5-min Rain = 0
KBY1 092337Z 20005KT 20/M03 A3006 RMK A01 T02041034  RH  020%=      5-min Rain = 0
KBY1 092338Z 20005KT 20/M04 A3005 RMK A01 T02031035  RH  020%=      5-min Rain = 0
KBY1 092339Z 20004KT 20/M04 A3006 RMK A01 T02011035  RH  020%=      5-min Rain = 0
KBY1 092340Z 20005KT 20/M04 A3006 RMK A01 T02001035  RH  020%=      5-min Rain = 0
KBY1 092341Z 20004KT 20/M04 A3006 RMK A01 T01991035  RH  020%=      5-min Rain = 0
KBY1 092342Z 21003KT 20/M03 A3006 RMK A01 T01981034  RH  021%=      5-min Rain = 0
KBY1 092343Z 21003KT 20/M03 A3006 RMK A01 T01971034  RH  021%=      5-min Rain = 0
KBY1 092344Z 21003KT 20/M03 A3006 RMK A01 T01961034  RH  021%=      5-min Rain = 0
KBY1 092345Z 21004KT 20/M03 A3006 RMK A01 T01961034  RH  021%=      5-min Rain = 0
KBY1 092346Z 21004KT 20/M03 A3006 RMK A01 T01961034  RH  021%=      5-min Rain = 0
KBY1 092347Z 21004KT 20/M03 A3006 RMK A01 T01951034  RH  021%=      5-min Rain = 0
KBY1 092348Z 21004KT 20/M03 A3005 RMK A01 T01951033  RH  021%=      5-min Rain = 0
KBY1 092349Z 21004KT 19/M03 A3005 RMK A01 T01941034  RH  021%=      5-min Rain = 0
KBY1 092350Z 21004KT 19/M03 A3005 RMK A01 T01931033  RH  021%=      5-min Rain = 0
KBY1 092351Z 22004KT 19/M03 A3005 RMK A01 T01931033  RH  021%=      5-min Rain = 0
KBY1 092352Z 22004KT 19/M03 A3005 RMK A01 T01921033  RH  021%=      5-min Rain = 0
KBY1 092353Z 22004KT 19/M03 A3005 RMK A01 T01911033  RH  022%=      5-min Rain = 0
KBY1 092354Z 21004KT 19/M03 A3005 RMK A01 T01911033  RH  022%=      5-min Rain = 0
KBY1 092355Z 21004KT 19/M03 A3005 RMK A01 T01901033  RH  022%=      5-min Rain = 0
KBY1 092356Z 21004KT 19/M03 A3005 RMK A01 T01891033  RH  022%=      5-min Rain = 0
KBY1 092357Z 21004KT 19/M03 A3005 RMK A01 T01891033  RH  022%=      5-min Rain = 0
KBY1 092358Z 21004KT 19/M03 A3005 RMK A01 T01881033  RH  022%=      5-min Rain = 0
KBY1 092359Z 21004KT 19/M03 A3005 RMK A01 T01881033  RH  022%=      5-min Rain = 0
KBY1 100000Z 21004KT 19/M03 A3005 RMK A01 T01871032  RH  022%=      5-min Rain = 0
KBY1 100001Z 21005KT 19/M03 A3005 RMK A01 T01861033  RH  022%=      5-min Rain = 0
KBY1 100002Z 21004KT 19/M03 A3005 RMK A01 T01851032  RH  023%=      5-min Rain = 0
KBY1 100003Z 21005KT 19/M03 A3005 RMK A01 T01851032  RH  023%=      5-min Rain = 0
KBY1 100004Z 21005KT 18/M03 A3005 RMK A01 T01841032  RH  023%=      5-min Rain = 0
KBY1 100005Z 21005KT 18/M03 A3005 RMK A01 T01831032  RH  023%=      5-min Rain = 0
KBY1 100006Z 21004KT 18/M03 A3005 RMK A01 T01821032  RH  023%=      5-min Rain = 0
KBY1 100007Z 21004KT 18/M03 A3005 RMK A01 T01821031  RH  023%=      5-min Rain = 0
KBY1 100008Z 21005KT 18/M03 A3005 RMK A01 T01811031  RH  023%=      5-min Rain = 0
KBY1 100009Z 21005KT 18/M03 A3005 RMK A01 T01811031  RH  023%=      5-min Rain = 0
KBY1 100010Z 21005KT 18/M03 A3005 RMK A01 T01801031  RH  024%=      5-min Rain = 0
KBY1 100011Z 21005KT 18/M03 A3005 RMK A01 T01791031  RH  024%=      5-min Rain = 0
KBY1 100012Z 21005KT 18/M03 A3005 RMK A01 T01791030  RH  024%=      5-min Rain = 0
KBY1 100013Z 21005KT 18/M03 A3005 RMK A01 T01781031  RH  024%=      5-min Rain = 0
KBY1 100014Z 21006KT 18/M03 A3005 RMK A01 T01781030  RH  024%=      5-min Rain = 0
KBY1 100015Z 21006KT 18/M03 A3005 RMK A01 T01781030  RH  024%=      5-min Rain = 0
KBY1 100016Z 21006KT 18/M03 A3005 RMK A01 T01771030  RH  024%=      5-min Rain = 0
KBY1 100017Z 21005KT 18/M03 A3005 RMK A01 T01771030  RH  024%=      5-min Rain = 0
KBY1 100018Z 21006KT 18/M03 A3005 RMK A01 T01771030  RH  024%=      5-min Rain = 0
KBY1 100019Z 21005KT 18/M03 A3005 RMK A01 T01771029  RH  024%=      5-min Rain = 0
KBY1 100020Z 21005KT 18/M03 A3005 RMK A01 T01761029  RH  024%=      5-min Rain = 0
KBY1 100021Z 20005KT 18/M03 A3005 RMK A01 T01761029  RH  025%=      5-min Rain = 0
KBY1 100022Z 20004KT 18/M03 A3005 RMK A01 T01751029  RH  025%=      5-min Rain = 0
KBY1 100023Z 20005KT 17/M03 A3005 RMK A01 T01741029  RH  025%=      5-min Rain = 0
KBY1 100024Z 20004KT 17/M03 A3005 RMK A01 T01731029  RH  025%=      5-min Rain = 0
KBY1 100025Z 20005KT 17/M03 A3005 RMK A01 T01721029  RH  025%=      5-min Rain = 0
KBY1 100026Z 20005KT 17/M03 A3005 RMK A01 T01711028  RH  025%=      5-min Rain = 0
KBY1 100027Z 20005KT 17/M03 A3005 RMK A01 T01691028  RH  026%=      5-min Rain = 0
KBY1 100028Z 20004KT 17/M03 A3005 RMK A01 T01681028  RH  026%=      5-min Rain = 0
KBY1 100029Z 20004KT 17/M03 A3005 RMK A01 T01661028  RH  026%=      5-min Rain = 0
KBY1 100030Z 20004KT 16/M03 A3005 RMK A01 T01641028  RH  027%=      5-min Rain = 0
KBY1 100031Z 20003KT 16/M03 A3005 RMK A01 T01621028  RH  027%=      5-min Rain = 0
KBY1 100032Z 19003KT 16/M03 A3005 RMK A01 T01601028  RH  027%=      5-min Rain = 0
KBY1 100033Z 18002KT 16/M03 A3005 RMK A01 T01581029  RH  027%=      5-min Rain = 0
KBY1 100034Z 17002KT 16/M03 A3005 RMK A01 T01571029  RH  028%=      5-min Rain = 0
KBY1 100035Z 18001KT 16/M03 A3005 RMK A01 T01551029  RH  028%=      5-min Rain = 0
KBY1 100036Z 19001KT 15/M03 A3005 RMK A01 T01541029  RH  028%=      5-min Rain = 0
KBY1 100037Z 19002KT 15/M03 A3005 RMK A01 T01541029  RH  028%=      5-min Rain = 0
KBY1 100038Z 20002KT 15/M03 A3005 RMK A01 T01541028  RH  028%=      5-min Rain = 0
KBY1 100039Z 19003KT 15/M03 A3005 RMK A01 T01541028  RH  028%=      5-min Rain = 0
KBY1 100040Z 20004KT 15/M03 A3005 RMK A01 T01541027  RH  029%=      5-min Rain = 0
KBY1 100041Z 20004KT 15/M03 A3005 RMK A01 T01531028  RH  029%=      5-min Rain = 0
KBY1 100042Z 19003KT 15/M03 A3005 RMK A01 T01521027  RH  029%=      5-min Rain = 0
KBY1 100043Z 19002KT 15/M03 A3005 RMK A01 T01511028  RH  029%=      5-min Rain = 0
KBY1 100044Z 18002KT 15/M03 A3005 RMK A01 T01511028  RH  029%=      5-min Rain = 0
KBY1 100045Z 17001KT 15/M03 A3006 RMK A01 T01501028  RH  029%=      5-min Rain = 0
KBY1 100046Z 20001KT 15/M03 A3006 RMK A01 T01501028  RH  029%=      5-min Rain = 0
KBY1 100047Z 21002KT 15/M03 A3006 RMK A01 T01501027  RH  029%=      5-min Rain = 0
KBY1 100048Z 20002KT 15/M03 A3006 RMK A01 T01501027  RH  029%=      5-min Rain = 0
KBY1 100049Z 20003KT 15/M03 A3006 RMK A01 T01501027  RH  029%=      5-min Rain = 0
KBY1 100050Z 21002KT 15/M03 A3006 RMK A01 T01511026  RH  029%=      5-min Rain = 0
KBY1 100051Z 20003KT 15/M03 A3006 RMK A01 T01511026  RH  029%=      5-min Rain = 0
KBY1 100052Z 19003KT 15/M03 A3006 RMK A01 T01511027  RH  029%=      5-min Rain = 0
KBY1 100053Z 18003KT 15/M03 A3006 RMK A01 T01511026  RH  029%=      5-min Rain = 0
KBY1 100054Z 21002KT 15/M03 A3006 RMK A01 T01521026  RH  029%=      5-min Rain = 0
KBY1 100055Z 21003KT 15/M03 A3006 RMK A01 T01511026  RH  029%=      5-min Rain = 0
KBY1 100056Z 21003KT 15/M03 A3006 RMK A01 T01501026  RH  030%=      5-min Rain = 0
KBY1 100057Z 21004KT 15/M03 A3005 RMK A01 T01491026  RH  030%=      5-min Rain = 0
KBY1 100058Z 21005KT 15/M03 A3006 RMK A01 T01491026  RH  030%=      5-min Rain = 0
KBY1 100059Z 22004KT 15/M03 A3006 RMK A01 T01481026  RH  030%=      5-min Rain = 0
KBY1 100100Z 21005KT 15/M03 A3006 RMK A01 T01471026  RH  030%=      5-min Rain = 0
KBY1 100101Z 22006KT 15/M03 A3006 RMK A01 T01471025  RH  030%=      5-min Rain = 0
KBY1 100102Z 22006KT 15/M03 A3006 RMK A01 T01471025  RH  030%=      5-min Rain = 0
KBY1 100103Z 22007KT 15/M02 A3006 RMK A01 T01471024  RH  031%=      5-min Rain = 0
KBY1 100104Z 22007KT 15/M02 A3005 RMK A01 T01481023  RH  031%=      5-min Rain = 0
KBY1 100105Z 21007KT 15/M02 A3005 RMK A01 T01481023  RH  031%=      5-min Rain = 0
KBY1 100106Z 22008KT 15/M02 A3005 RMK A01 T01481022  RH  031%=      5-min Rain = 0
KBY1 100107Z 21007KT 15/M02 A3005 RMK A01 T01491022  RH  031%=      5-min Rain = 0
KBY1 100108Z 21008KT 15/M02 A3005 RMK A01 T01511021  RH  031%=      5-min Rain = 0
KBY1 100109Z 22007KT 15/M02 A3005 RMK A01 T01521021  RH  030%=      5-min Rain = 0
KBY1 100110Z 21008KT 15/M02 A3005 RMK A01 T01531021  RH  030%=      5-min Rain = 0
KBY1 100111Z 22007KT 15/M02 A3005 RMK A01 T01541021  RH  030%=      5-min Rain = 0
KBY1 100112Z 21007KT 15/M02 A3005 RMK A01 T01541021  RH  030%=      5-min Rain = 0
KBY1 100113Z 21007KT 15/M02 A3005 RMK A01 T01541021  RH  030%=      5-min Rain = 0
KBY1 100114Z 21008KT 15/M02 A3005 RMK A01 T01541021  RH  030%=      5-min Rain = 0
KBY1 100115Z 21008KT 15/M02 A3006 RMK A01 T01541021  RH  030%=      5-min Rain = 0
KBY1 100116Z 20006KT 15/M02 A3006 RMK A01 T01531020  RH  030%=      5-min Rain = 0
KBY1 100117Z 20006KT 15/M02 A3006 RMK A01 T01521021  RH  030%=      5-min Rain = 0
KBY1 100118Z 20006KT 15/M02 A3006 RMK A01 T01511021  RH  031%=      5-min Rain = 0
KBY1 100119Z 21006KT 15/M02 A3006 RMK A01 T01501020  RH  031%=      5-min Rain = 0
KBY1 100120Z 21005KT 15/M02 A3006 RMK A01 T01501020  RH  031%=      5-min Rain = 0
KBY1 100121Z 20005KT 15/M02 A3006 RMK A01 T01491020  RH  031%=      5-min Rain = 0
KBY1 100122Z 20006KT 15/M02 A3006 RMK A01 T01491020  RH  031%=      5-min Rain = 0
KBY1 100123Z 20006KT 15/M02 A3006 RMK A01 T01491019  RH  031%=      5-min Rain = 0
KBY1 100124Z 20006KT 15/M02 A3006 RMK A01 T01491019  RH  031%=      5-min Rain = 0
KBY1 100125Z 21006KT 15/M02 A3006 RMK A01 T01501018  RH  031%=      5-min Rain = 0
KBY1 100126Z 21006KT 15/M02 A3006 RMK A01 T01501018  RH  032%=      5-min Rain = 0
KBY1 100127Z 21006KT 15/M02 A3006 RMK A01 T01501018  RH  031%=      5-min Rain = 0
KBY1 100128Z 21007KT 15/M02 A3006 RMK A01 T01511017  RH  031%=      5-min Rain = 0
KBY1 100129Z 21006KT 15/M02 A3006 RMK A01 T01511017  RH  032%=      5-min Rain = 0
KBY1 100130Z 21006KT 15/M02 A3006 RMK A01 T01511016  RH  032%=      5-min Rain = 0
KBY1 100131Z 21006KT 15/M02 A3006 RMK A01 T01511016  RH  032%=      5-min Rain = 0
KBY1 100132Z 21006KT 15/M02 A3006 RMK A01 T01511015  RH  032%=      5-min Rain = 0
KBY1 100133Z 21007KT 15/M02 A3006 RMK A01 T01531015  RH  032%=      5-min Rain = 0
KBY1 100134Z 21006KT 15/M01 A3006 RMK A01 T01531014  RH  032%=      5-min Rain = 0
KBY1 100135Z 20007KT 15/M01 A3006 RMK A01 T01531014  RH  032%=      5-min Rain = 0
KBY1 100136Z 20006KT 15/M01 A3006 RMK A01 T01531014  RH  032%=      5-min Rain = 0
KBY1 100137Z 21005KT 15/M01 A3006 RMK A01 T01531014  RH  032%=      5-min Rain = 0
KBY1 100138Z 21006KT 15/M01 A3006 RMK A01 T01531014  RH  032%=      5-min Rain = 0
KBY1 100139Z 21005KT 15/M01 A3006 RMK A01 T01521014  RH  032%=      5-min Rain = 0
KBY1 100140Z 21006KT 15/M01 A3006 RMK A01 T01521014  RH  032%=      5-min Rain = 0
KBY1 100141Z 22007KT 15/M01 A3006 RMK A01 T01531014  RH  032%=      5-min Rain = 0
KBY1 100142Z 21007KT 15/M01 A3006 RMK A01 T01531014  RH  032%=      5-min Rain = 0
KBY1 100143Z 22007KT 15/M01 A3006 RMK A01 T01541013  RH  032%=      5-min Rain = 0
KBY1 100144Z 22008KT 15/M01 A3006 RMK A01 T01541013  RH  032%=      5-min Rain = 0
KBY1 100145Z 22007KT 16/M01 A3006 RMK A01 T01551013  RH  032%=      5-min Rain = 0
KBY1 100146Z 22006KT 16/M01 A3006 RMK A01 T01561013  RH  031%=      5-min Rain = 0
KBY1 100147Z 22007KT 16/M01 A3006 RMK A01 T01561013  RH  031%=      5-min Rain = 0
KBY1 100148Z 22006KT 16/M01 A3006 RMK A01 T01561013  RH  031%=      5-min Rain = 0
KBY1 100149Z 22006KT 16/M01 A3006 RMK A01 T01561013  RH  031%=      5-min Rain = 0
KBY1 100150Z 22006KT 16/M01 A3006 RMK A01 T01551013  RH  032%=      5-min Rain = 0
KBY1 100151Z 22007KT 16/M01 A3006 RMK A01 T01551013  RH  032%=      5-min Rain = 0
KBY1 100152Z 22005KT 16/M01 A3006 RMK A01 T01551014  RH  031%=      5-min Rain = 0
KBY1 100153Z 23004KT 16/M01 A3006 RMK A01 T01551013  RH  032%=      5-min Rain = 0
KBY1 100154Z 22006KT 15/M01 A3006 RMK A01 T01531014  RH  032%=      5-min Rain = 0
KBY1 100155Z 23005KT 15/M01 A3006 RMK A01 T01521013  RH  032%=      5-min Rain = 0
KBY1 100156Z 23004KT 15/M01 A3006 RMK A01 T01511014  RH  032%=      5-min Rain = 0
KBY1 100157Z 24002KT 15/M01 A3006 RMK A01 T01501014  RH  032%=      5-min Rain = 0
KBY1 100158Z 25002KT 15/M01 A3007 RMK A01 T01501014  RH  032%=      5-min Rain = 0
KBY1 100159Z 26002KT 15/M02 A3007 RMK A01 T01491015  RH  032%=      5-min Rain = 0
KBY1 100200Z 24002KT 15/M02 A3007 RMK A01 T01481015  RH  032%=      5-min Rain = 0
KBY1 100201Z 23004KT 15/M02 A3007 RMK A01 T01481016  RH  032%=      5-min Rain = 0
KBY1 100202Z 23004KT 15/M02 A3007 RMK A01 T01471016  RH  033%=      5-min Rain = 0
KBY1 100203Z 23003KT 15/M02 A3007 RMK A01 T01471016  RH  033%=      5-min Rain = 0
KBY1 100204Z 23004KT 15/M02 A3007 RMK A01 T01461015  RH  033%=      5-min Rain = 0
KBY1 100205Z 23004KT 15/M02 A3007 RMK A01 T01461015  RH  033%=      5-min Rain = 0
KBY1 100206Z 23004KT 15/M02 A3007 RMK A01 T01451015  RH  033%=      5-min Rain = 0
KBY1 100207Z 23004KT 14/M02 A3007 RMK A01 T01441015  RH  033%=      5-min Rain = 0
KBY1 100208Z 23003KT 14/M02 A3007 RMK A01 T01431015  RH  033%=      5-min Rain = 0
KBY1 100209Z 24003KT 14/M02 A3007 RMK A01 T01421015  RH  034%=      5-min Rain = 0
KBY1 100210Z 23002KT 14/M02 A3007 RMK A01 T01411015  RH  034%=      5-min Rain = 0
KBY1 100211Z 23000KT 14/M02 A3007 RMK A01 T01391016  RH  034%=      5-min Rain = 0
KBY1 100212Z 29001KT 14/M02 A3007 RMK A01 T01351016  RH  035%=      5-min Rain = 0
KBY1 100213Z 28002KT 13/M02 A3007 RMK A01 T01301016  RH  036%=      5-min Rain = 0
KBY1 100214Z 29003KT 13/M02 A3007 RMK A01 T01271016  RH  037%=      5-min Rain = 0
KBY1 100215Z 28004KT 13/M02 A3007 RMK A01 T01251015  RH  038%=      5-min Rain = 0
KBY1 100216Z 27005KT 12/M01 A3007 RMK A01 T01241014  RH  038%=      5-min Rain = 0
KBY1 100217Z 27005KT 13/M01 A3007 RMK A01 T01261014  RH  038%=      5-min Rain = 0
KBY1 100218Z 27005KT 13/M01 A3007 RMK A01 T01291013  RH  037%=      5-min Rain = 0
KBY1 100219Z 27006KT 13/M01 A3007 RMK A01 T01321013  RH  037%=      5-min Rain = 0
KBY1 100220Z 27004KT 13/M01 A3007 RMK A01 T01321014  RH  036%=      5-min Rain = 0
KBY1 100221Z 27004KT 13/M01 A3007 RMK A01 T01331014  RH  036%=      5-min Rain = 0
KBY1 100222Z 28004KT 14/M01 A3007 RMK A01 T01351014  RH  036%=      5-min Rain = 0
KBY1 100223Z 27005KT 14/M01 A3007 RMK A01 T01351014  RH  036%=      5-min Rain = 0
KBY1 100224Z 26004KT 14/M01 A3007 RMK A01 T01351014  RH  036%=      5-min Rain = 0
KBY1 100225Z 28004KT 14/M01 A3007 RMK A01 T01351014  RH  036%=      5-min Rain = 0
KBY1 100226Z 28003KT 13/M01 A3007 RMK A01 T01341014  RH  036%=      5-min Rain = 0
KBY1 100227Z 28004KT 13/M01 A3007 RMK A01 T01341014  RH  036%=      5-min Rain = 0
KBY1 100228Z 28005KT 13/M02 A3007 RMK A01 T01331015  RH  036%=      5-min Rain = 0
KBY1 100229Z 29006KT 13/M01 A3007 RMK A01 T01331014  RH  036%=      5-min Rain = 0
KBY1 100230Z 29004KT 13/M01 A3007 RMK A01 T01321014  RH  036%=      5-min Rain = 0
KBY1 100231Z 29004KT 13/M02 A3007 RMK A01 T01321015  RH  036%=      5-min Rain = 0
KBY1 100232Z 29006KT 13/M02 A3007 RMK A01 T01311015  RH  036%=      5-min Rain = 0
KBY1 100233Z 27003KT 13/M02 A3007 RMK A01 T01311015  RH  036%=      5-min Rain = 0
KBY1 100234Z 26001KT 13/M02 A3007 RMK A01 T01291015  RH  037%=      5-min Rain = 0
KBY1 100235Z 29002KT 13/M02 A3007 RMK A01 T01271015  RH  037%=      5-min Rain = 0
KBY1 100236Z 31000KT 13/M02 A3007 RMK A01 T01251015  RH  038%=      5-min Rain = 0
KBY1 100237Z 21000KT 12/M02 A3007 RMK A01 T01231016  RH  038%=      5-min Rain = 0
KBY1 100238Z 30001KT 12/M02 A3007 RMK A01 T01221016  RH  038%=      5-min Rain = 0
KBY1 100239Z 33000KT 12/M02 A3007 RMK A01 T01211016  RH  039%=      5-min Rain = 0
KBY1 100240Z 31001KT 12/M02 A3007 RMK A01 T01201016  RH  039%=      5-min Rain = 0
KBY1 100241Z 32001KT 12/M02 A3007 RMK A01 T01201015  RH  039%=      5-min Rain = 0
KBY1 100242Z 33001KT 12/M02 A3008 RMK A01 T01211015  RH  039%=      5-min Rain = 0
KBY1 100243Z 34002KT 12/M02 A3007 RMK A01 T01201016  RH  039%=      5-min Rain = 0
KBY1 100244Z 31002KT 12/M02 A3007 RMK A01 T01181016  RH  039%=      5-min Rain = 0
KBY1 100245Z 30000KT 12/M02 A3007 RMK A01 T01161016  RH  040%=      5-min Rain = 0
KBY1 100246Z 30001KT 11/M02 A3007 RMK A01 T01131016  RH  041%=      5-min Rain = 0
KBY1 100247Z 31001KT 11/M02 A3007 RMK A01 T01101016  RH  041%=      5-min Rain = 0
KBY1 100248Z 32001KT 11/M02 A3007 RMK A01 T01091016  RH  042%=      5-min Rain = 0
KBY1 100249Z 31001KT 11/M02 A3007 RMK A01 T01071016  RH  042%=      5-min Rain = 0
KBY1 100250Z 32001KT 11/M02 A3007 RMK A01 T01051016  RH  043%=      5-min Rain = 0
KBY1 100251Z 34001KT 10/M02 A3007 RMK A01 T01041016  RH  043%=      5-min Rain = 0
KBY1 100252Z 02000KT 10/M02 A3007 RMK A01 T01031016  RH  043%=      5-min Rain = 0
KBY1 100253Z 03001KT 10/M02 A3007 RMK A01 T01011017  RH  044%=      5-min Rain = 0
KBY1 100254Z 03000KT 10/M02 A3008 RMK A01 T01001017  RH  044%=      5-min Rain = 0
KBY1 100255Z 00000KT 10/M02 A3008 RMK A01 T00991017  RH  044%=      5-min Rain = 0
KBY1 100256Z 04000KT 10/M02 A3008 RMK A01 T00991017  RH  044%=      5-min Rain = 0
KBY1 100257Z 01001KT 10/M02 A3008 RMK A01 T00981017  RH  045%=      5-min Rain = 0
KBY1 100258Z 00002KT 10/M02 A3008 RMK A01 T00981016  RH  045%=      5-min Rain = 0
KBY1 100259Z 01002KT 10/M02 A3008 RMK A01 T00981016  RH  045%=      5-min Rain = 0
KBY1 100300Z 00002KT 10/M02 A3008 RMK A01 T00981017  RH  045%=      5-min Rain = 0
KBY1 100301Z 00002KT 10/M02 A3008 RMK A01 T00951018  RH  045%=      5-min Rain = 0
KBY1 100302Z 36002KT 09/M02 A3008 RMK A01 T00911019  RH  046%=      5-min Rain = 0
KBY1 100303Z 01002KT 09/M02 A3008 RMK A01 T00871020  RH  047%=      5-min Rain = 0
KBY1 100304Z 03001KT 08/M02 A3008 RMK A01 T00811020  RH  049%=      5-min Rain = 0
KBY1 100305Z 03001KT 08/M02 A3008 RMK A01 T00781020  RH  050%=      5-min Rain = 0
KBY1 100306Z 01002KT 08/M02 A3008 RMK A01 T00781019  RH  050%=      5-min Rain = 0
KBY1 100307Z 00001KT 08/M02 A3008 RMK A01 T00781019  RH  050%=      5-min Rain = 0
KBY1 100308Z 03001KT 08/M02 A3008 RMK A01 T00791018  RH  050%=      5-min Rain = 0
KBY1 100309Z 02002KT 08/M02 A3008 RMK A01 T00781019  RH  050%=      5-min Rain = 0
KBY1 100310Z 01001KT 08/M02 A3008 RMK A01 T00761020  RH  051%=      5-min Rain = 0
KBY1 100311Z 02001KT 08/M02 A3008 RMK A01 T00771019  RH  051%=      5-min Rain = 0
KBY1 100312Z 05000KT 08/M02 A3008 RMK A01 T00781019  RH  050%=      5-min Rain = 0
KBY1 100313Z 00000KT 08/M02 A3008 RMK A01 T00781019  RH  050%=      5-min Rain = 0
KBY1 100314Z 00000KT 08/M02 A3008 RMK A01 T00771020  RH  050%=      5-min Rain = 0
KBY1 100315Z 00000KT 07/M02 A3008 RMK A01 T00741020  RH  051%=      5-min Rain = 0
KBY1 100316Z 00000KT 08/M02 A3008 RMK A01 T00761018  RH  051%=      5-min Rain = 0
KBY1 100317Z 00000KT 08/M02 A3008 RMK A01 T00791018  RH  051%=      5-min Rain = 0
KBY1 100318Z 00000KT 08/M02 A3008 RMK A01 T00801018  RH  050%=      5-min Rain = 0
KBY1 100319Z 00000KT 08/M02 A3008 RMK A01 T00801019  RH  050%=      5-min Rain = 0
KBY1 100320Z 00000KT 08/M02 A3008 RMK A01 T00791019  RH  050%=      5-min Rain = 0
KBY1 100321Z 00000KT 07/M02 A3008 RMK A01 T00741021  RH  051%=      5-min Rain = 0
KBY1 100322Z 04000KT 07/M02 A3008 RMK A01 T00701021  RH  052%=      5-min Rain = 0
KBY1 100323Z 03001KT 07/M02 A3008 RMK A01 T00661022  RH  054%=      5-min Rain = 0
KBY1 100324Z 02001KT 06/M02 A3008 RMK A01 T00641020  RH  055%=      5-min Rain = 0
KBY1 100325Z 00000KT 07/M02 A3008 RMK A01 T00661019  RH  055%=      5-min Rain = 0
KBY1 100326Z 00000KT 07/M02 A3008 RMK A01 T00661019  RH  054%=      5-min Rain = 0
KBY1 100327Z 04001KT 07/M02 A3008 RMK A01 T00651020  RH  055%=      5-min Rain = 0
KBY1 100328Z 01000KT 07/M02 A3008 RMK A01 T00681018  RH  054%=      5-min Rain = 0
KBY1 100329Z 33000KT 06/M02 A3008 RMK A01 T00641021  RH  054%=      5-min Rain = 0
KBY1 100330Z 31000KT 06/M02 A3008 RMK A01 T00621020  RH  056%=      5-min Rain = 0
KBY1 100331Z 28000KT 06/M02 A3008 RMK A01 T00581024  RH  056%=      5-min Rain = 0
KBY1 100332Z 33001KT 05/M02 A3008 RMK A01 T00541024  RH  057%=      5-min Rain = 0
KBY1 100333Z 22000KT 05/M03 A3008 RMK A01 T00521025  RH  058%=      5-min Rain = 0
KBY1 100334Z 26001KT 05/M02 A3008 RMK A01 T00501024  RH  059%=      5-min Rain = 0
KBY1 100335Z 26001KT 05/M02 A3008 RMK A01 T00511022  RH  059%=      5-min Rain = 0
KBY1 100336Z 22001KT 05/M02 A3008 RMK A01 T00531021  RH  059%=      5-min Rain = 0
KBY1 100337Z 24000KT 05/M02 A3008 RMK A01 T00541021  RH  059%=      5-min Rain = 0
KBY1 100338Z 36001KT 06/M02 A3008 RMK A01 T00591017  RH  058%=      5-min Rain = 0
KBY1 100339Z 02000KT 07/M01 A3008 RMK A01 T00681014  RH  056%=      5-min Rain = 0
KBY1 100340Z 30001KT 07/M02 A3008 RMK A01 T00671018  RH  054%=      5-min Rain = 0
KBY1 100341Z 36001KT 07/M02 A3008 RMK A01 T00651019  RH  055%=      5-min Rain = 0
KBY1 100342Z 33003KT 06/M02 A3008 RMK A01 T00641019  RH  055%=      5-min Rain = 0
KBY1 100343Z 33001KT 06/M02 A3008 RMK A01 T00641018  RH  056%=      5-min Rain = 0
KBY1 100344Z 03001KT 06/M02 A3008 RMK A01 T00601022  RH  055%=      5-min Rain = 0
KBY1 100345Z 02002KT 05/M02 A3008 RMK A01 T00541023  RH  057%=      5-min Rain = 0
KBY1 100346Z 02002KT 05/M02 A3008 RMK A01 T00531022  RH  059%=      5-min Rain = 0
KBY1 100347Z 04001KT 05/M02 A3008 RMK A01 T00511022  RH  059%=      5-min Rain = 0
KBY1 100348Z 34001KT 05/M02 A3008 RMK A01 T00501021  RH  060%=      5-min Rain = 0
KBY1 100349Z 34002KT 05/M02 A3008 RMK A01 T00511021  RH  060%=      5-min Rain = 0
KBY1 100350Z 36002KT 05/M02 A3008 RMK A01 T00511021  RH  060%=      5-min Rain = 0
KBY1 100351Z 36001KT 05/M02 A3008 RMK A01 T00531020  RH  059%=      5-min Rain = 0
KBY1 100352Z 35001KT 05/M02 A3008 RMK A01 T00541020  RH  059%=      5-min Rain = 0
KBY1 100353Z 01002KT 06/M02 A3008 RMK A01 T00571019  RH  058%=      5-min Rain = 0
KBY1 100354Z 02001KT 06/M02 A3008 RMK A01 T00591019  RH  057%=      5-min Rain = 0
KBY1 100355Z 00000KT 06/M02 A3008 RMK A01 T00561023  RH  057%=      5-min Rain = 0
KBY1 100356Z 00000KT 05/M03 A3008 RMK A01 T00491029  RH  057%=      5-min Rain = 0
KBY1 100357Z 00000KT 05/M03 A3008 RMK A01 T00451027  RH  060%=      5-min Rain = 0
KBY1 100358Z 00000KT 04/M03 A3008 RMK A01 T00441025  RH  061%=      5-min Rain = 0
KBY1 100359Z 00000KT 04/M02 A3008 RMK A01 T00441023  RH  062%=      5-min Rain = 0
KBY1 100400Z 00000KT 05/M02 A3008 RMK A01 T00461022  RH  061%=      5-min Rain = 0
KBY1 100401Z 24000KT 05/M02 A3008 RMK A01 T00471022  RH  061%=      5-min Rain = 0
KBY1 100402Z 27001KT 05/M02 A3008 RMK A01 T00461023  RH  061%=      5-min Rain = 0
KBY1 100403Z 28002KT 04/M02 A3008 RMK A01 T00441023  RH  062%=      5-min Rain = 0
KBY1 100404Z 28002KT 04/M02 A3008 RMK A01 T00431023  RH  062%=      5-min Rain = 0
KBY1 100405Z 29002KT 04/M02 A3008 RMK A01 T00431022  RH  063%=      5-min Rain = 0
KBY1 100406Z 31001KT 04/M02 A3008 RMK A01 T00421022  RH  063%=      5-min Rain = 0
KBY1 100407Z 34003KT 04/M02 A3008 RMK A01 T00421023  RH  063%=      5-min Rain = 0
KBY1 100408Z 35003KT 04/M02 A3008 RMK A01 T00411024  RH  063%=      5-min Rain = 0
KBY1 100409Z 03002KT 04/M03 A3008 RMK A01 T00381025  RH  063%=      5-min Rain = 0
KBY1 100410Z 04002KT 03/M03 A3008 RMK A01 T00331028  RH  064%=      5-min Rain = 0
KBY1 100411Z 06002KT 03/M03 A3009 RMK A01 T00281028  RH  066%=      5-min Rain = 0
KBY1 100412Z 07002KT 03/M03 A3009 RMK A01 T00251029  RH  068%=      5-min Rain = 0
KBY1 100413Z 08001KT 02/M03 A3009 RMK A01 T00231029  RH  069%=      5-min Rain = 0
KBY1 100414Z 10001KT 02/M03 A3009 RMK A01 T00211028  RH  070%=      5-min Rain = 0
KBY1 100415Z 11000KT 02/M03 A3009 RMK A01 T00211028  RH  070%=      5-min Rain = 0
KBY1 100416Z 11001KT 02/M03 A3009 RMK A01 T00201029  RH  070%=      5-min Rain = 0
KBY1 100417Z 09001KT 02/M03 A3009 RMK A01 T00191029  RH  071%=      5-min Rain = 0
KBY1 100418Z 09000KT 02/M03 A3009 RMK A01 T00191028  RH  071%=      5-min Rain = 0
KBY1 100419Z 00000KT 02/M03 A3009 RMK A01 T00191027  RH  071%=      5-min Rain = 0
KBY1 100420Z 20000KT 02/M03 A3009 RMK A01 T00201026  RH  072%=      5-min Rain = 0
KBY1 100421Z 22000KT 02/M03 A3009 RMK A01 T00211026  RH  071%=      5-min Rain = 0
KBY1 100422Z 00000KT 02/M03 A3009 RMK A01 T00211026  RH  071%=      5-min Rain = 0
KBY1 100423Z 00000KT 02/M03 A3009 RMK A01 T00211026  RH  071%=      5-min Rain = 0
KBY1 100424Z 00000KT 02/M03 A3008 RMK A01 T00221025  RH  071%=      5-min Rain = 0
KBY1 100425Z 00000KT 02/M02 A3008 RMK A01 T00231024  RH  071%=      5-min Rain = 0
KBY1 100426Z 00000KT 02/M02 A3008 RMK A01 T00241024  RH  071%=      5-min Rain = 0
KBY1 100427Z 00000KT 03/M02 A3008 RMK A01 T00251024  RH  070%=      5-min Rain = 0
KBY1 100428Z 21000KT 03/M02 A3008 RMK A01 T00261023  RH  070%=      5-min Rain = 0
KBY1 100429Z 00000KT 03/M02 A3008 RMK A01 T00261023  RH  070%=      5-min Rain = 0
KBY1 100430Z 21000KT 03/M02 A3008 RMK A01 T00261024  RH  070%=      5-min Rain = 0
KBY1 100431Z 19000KT 03/M02 A3008 RMK A01 T00261024  RH  069%=      5-min Rain = 0
KBY1 100432Z 25000KT 03/M02 A3008 RMK A01 T00271023  RH  069%=      5-min Rain = 0
KBY1 100433Z 25001KT 03/M02 A3008 RMK A01 T00301021  RH  069%=      5-min Rain = 0
KBY1 100434Z 25001KT 03/M02 A3008 RMK A01 T00321021  RH  069%=      5-min Rain = 0
KBY1 100435Z 27000KT 03/M02 A3008 RMK A01 T00341020  RH  068%=      5-min Rain = 0
KBY1 100436Z 30000KT 03/M02 A3008 RMK A01 T00341021  RH  067%=      5-min Rain = 0
KBY1 100437Z 21001KT 03/M02 A3008 RMK A01 T00331024  RH  066%=      5-min Rain = 0
KBY1 100438Z 20001KT 03/M02 A3008 RMK A01 T00311024  RH  067%=      5-min Rain = 0
KBY1 100439Z 20000KT 03/M03 A3008 RMK A01 T00301025  RH  067%=      5-min Rain = 0
KBY1 100440Z 20000KT 03/M03 A3008 RMK A01 T00301025  RH  067%=      5-min Rain = 0
KBY1 100441Z 20001KT 03/M03 A3008 RMK A01 T00291025  RH  067%=      5-min Rain = 0
KBY1 100442Z 21001KT 03/M02 A3008 RMK A01 T00301024  RH  068%=      5-min Rain = 0
KBY1 100443Z 22001KT 03/M02 A3008 RMK A01 T00311024  RH  067%=      5-min Rain = 0
KBY1 100444Z 22001KT 03/M02 A3008 RMK A01 T00311023  RH  067%=      5-min Rain = 0
KBY1 100445Z 22000KT 03/M02 A3008 RMK A01 T00331022  RH  067%=      5-min Rain = 0
KBY1 100446Z 22000KT 03/M02 A3008 RMK A01 T00341021  RH  067%=      5-min Rain = 0
KBY1 100447Z 23001KT 04/M02 A3008 RMK A01 T00351021  RH  067%=      5-min Rain = 0
KBY1 100448Z 24000KT 04/M02 A3007 RMK A01 T00351022  RH  066%=      5-min Rain = 0
KBY1 100449Z 00000KT 04/M02 A3007 RMK A01 T00351022  RH  066%=      5-min Rain = 0
KBY1 100450Z 34000KT 04/M02 A3007 RMK A01 T00351021  RH  067%=      5-min Rain = 0
KBY1 100451Z 34000KT 04/M02 A3007 RMK A01 T00351020  RH  067%=      5-min Rain = 0
KBY1 100452Z 00000KT 04/M02 A3007 RMK A01 T00351020  RH  067%=      5-min Rain = 0
KBY1 100453Z 22000KT 04/M02 A3007 RMK A01 T00351021  RH  067%=      5-min Rain = 0
KBY1 100454Z 22001KT 03/M02 A3007 RMK A01 T00341023  RH  066%=      5-min Rain = 0
KBY1 100455Z 21001KT 04/M02 A3007 RMK A01 T00351022  RH  067%=      5-min Rain = 0
KBY1 100456Z 21001KT 04/M02 A3007 RMK A01 T00361020  RH  067%=      5-min Rain = 0
KBY1 100457Z 21001KT 04/M02 A3007 RMK A01 T00371019  RH  067%=      5-min Rain = 0
KBY1 100458Z 22001KT 04/M02 A3007 RMK A01 T00381018  RH  066%=      5-min Rain = 0
KBY1 100459Z 22001KT 04/M02 A3007 RMK A01 T00381019  RH  066%=      5-min Rain = 0
KBY1 100500Z 23001KT 04/M02 A3007 RMK A01 T00381019  RH  066%=      5-min Rain = 0
KBY1 100501Z 22001KT 04/M02 A3007 RMK A01 T00391018  RH  066%=      5-min Rain = 0
KBY1 100502Z 22001KT 04/M02 A3007 RMK A01 T00391018  RH  066%=      5-min Rain = 0
KBY1 100503Z 21000KT 04/M02 A3007 RMK A01 T00401017  RH  066%=      5-min Rain = 0
KBY1 100504Z 20000KT 04/M02 A3007 RMK A01 T00401017  RH  066%=      5-min Rain = 0
KBY1 100505Z 21000KT 04/M02 A3007 RMK A01 T00401017  RH  066%=      5-min Rain = 0
KBY1 100506Z 00000KT 04/M02 A3007 RMK A01 T00391018  RH  066%=      5-min Rain = 0
KBY1 100507Z 00000KT 04/M02 A3007 RMK A01 T00371020  RH  067%=      5-min Rain = 0
KBY1 100508Z 00000KT 04/M02 A3007 RMK A01 T00351020  RH  067%=      5-min Rain = 0
KBY1 100509Z 18001KT 03/M02 A3007 RMK A01 T00341020  RH  067%=      5-min Rain = 0
KBY1 100510Z 20001KT 03/M02 A3007 RMK A01 T00321021  RH  068%=      5-min Rain = 0
KBY1 100511Z 20000KT 03/M02 A3007 RMK A01 T00311021  RH  068%=      5-min Rain = 0
KBY1 100512Z 00000KT 03/M02 A3007 RMK A01 T00301022  RH  069%=      5-min Rain = 0
KBY1 100513Z 00000KT 03/M02 A3007 RMK A01 T00291023  RH  069%=      5-min Rain = 0
KBY1 100514Z 00000KT 03/M02 A3007 RMK A01 T00281023  RH  069%=      5-min Rain = 0
KBY1 100515Z 00000KT 03/M02 A3007 RMK A01 T00271024  RH  069%=      5-min Rain = 0
KBY1 100516Z 00000KT 03/M02 A3007 RMK A01 T00271023  RH  070%=      5-min Rain = 0
KBY1 100517Z 00000KT 03/M02 A3007 RMK A01 T00261023  RH  070%=      5-min Rain = 0
KBY1 100518Z 00000KT 03/M02 A3007 RMK A01 T00261023  RH  070%=      5-min Rain = 0
KBY1 100519Z 00000KT 03/M02 A3007 RMK A01 T00251023  RH  071%=      5-min Rain = 0
KBY1 100520Z 00000KT 02/M02 A3007 RMK A01 T00241023  RH  071%=      5-min Rain = 0
KBY1 100521Z 00000KT 02/M02 A3007 RMK A01 T00241024  RH  071%=      5-min Rain = 0
KBY1 100522Z 00000KT 02/M02 A3006 RMK A01 T00231024  RH  071%=      5-min Rain = 0
KBY1 100523Z 00000KT 02/M02 A3006 RMK A01 T00231024  RH  071%=      5-min Rain = 0
KBY1 100524Z 00000KT 02/M02 A3006 RMK A01 T00231023  RH  072%=      5-min Rain = 0
KBY1 100525Z 00000KT 03/M02 A3006 RMK A01 T00251021  RH  072%=      5-min Rain = 0
KBY1 100526Z 00000KT 03/M02 A3006 RMK A01 T00261021  RH  071%=      5-min Rain = 0
KBY1 100527Z 00000KT 03/M02 A3006 RMK A01 T00261021  RH  071%=      5-min Rain = 0
KBY1 100528Z 00000KT 03/M02 A3006 RMK A01 T00271021  RH  071%=      5-min Rain = 0
KBY1 100529Z 00000KT 03/M02 A3006 RMK A01 T00281021  RH  070%=      5-min Rain = 0
KBY1 100530Z 00000KT 03/M02 A3006 RMK A01 T00301020  RH  069%=      5-min Rain = 0
KBY1 100531Z 00000KT 03/M02 A3006 RMK A01 T00321019  RH  069%=      5-min Rain = 0
KBY1 100532Z 00000KT 04/M02 A3006 RMK A01 T00351018  RH  069%=      5-min Rain = 0
KBY1 100533Z 00000KT 04/M02 A3006 RMK A01 T00371017  RH  068%=      5-min Rain = 0
KBY1 100534Z 00000KT 04/M02 A3006 RMK A01 T00381017  RH  067%=      5-min Rain = 0
KBY1 100535Z 07000KT 04/M02 A3006 RMK A01 T00381018  RH  067%=      5-min Rain = 0
KBY1 100536Z 07001KT 04/M02 A3006 RMK A01 T00371019  RH  067%=      5-min Rain = 0
KBY1 100537Z 07002KT 04/M02 A3006 RMK A01 T00351020  RH  067%=      5-min Rain = 0
KBY1 100538Z 08002KT 03/M02 A3006 RMK A01 T00341020  RH  068%=      5-min Rain = 0
KBY1 100539Z 06001KT 03/M02 A3006 RMK A01 T00331021  RH  068%=      5-min Rain = 0
KBY1 100540Z 05001KT 03/M02 A3006 RMK A01 T00321020  RH  069%=      5-min Rain = 0
KBY1 100541Z 05001KT 03/M02 A3006 RMK A01 T00311020  RH  069%=      5-min Rain = 0
KBY1 100542Z 04000KT 03/M02 A3006 RMK A01 T00311020  RH  069%=      5-min Rain = 0
KBY1 100543Z 04000KT 03/M02 A3006 RMK A01 T00311020  RH  069%=      5-min Rain = 0
KBY1 100544Z 00000KT 03/M02 A3006 RMK A01 T00301020  RH  070%=      5-min Rain = 0
KBY1 100545Z 00000KT 03/M02 A3006 RMK A01 T00301019  RH  070%=      5-min Rain = 0
KBY1 100546Z 00000KT 03/M02 A3006 RMK A01 T00311019  RH  070%=      5-min Rain = 0
KBY1 100547Z 00000KT 03/M02 A3006 RMK A01 T00321018  RH  070%=      5-min Rain = 0
KBY1 100548Z 00000KT 03/M02 A3006 RMK A01 T00331018  RH  069%=      5-min Rain = 0
KBY1 100549Z 00000KT 03/M02 A3006 RMK A01 T00321020  RH  069%=      5-min Rain = 0
KBY1 100550Z 00000KT 03/M02 A3006 RMK A01 T00311019  RH  069%=      5-min Rain = 0
KBY1 100551Z 00000KT 03/M02 A3006 RMK A01 T00331017  RH  070%=      5-min Rain = 0
KBY1 100552Z 00000KT 03/M02 A3006 RMK A01 T00341017  RH  069%=      5-min Rain = 0
KBY1 100553Z 00000KT 04/M02 A3006 RMK A01 T00351016  RH  069%=      5-min Rain = 0
KBY1 100554Z 00000KT 04/M02 A3006 RMK A01 T00381016  RH  068%=      5-min Rain = 0
KBY1 100555Z 04001KT 04/M02 A3006 RMK A01 T00401016  RH  067%=      5-min Rain = 0
KBY1 100556Z 04000KT 04/M02 A3006 RMK A01 T00421016  RH  066%=      5-min Rain = 0
KBY1 100557Z 00000KT 04/M02 A3006 RMK A01 T00421018  RH  065%=      5-min Rain = 0
KBY1 100558Z 00000KT 04/M02 A3006 RMK A01 T00381020  RH  065%=      5-min Rain = 0
KBY1 100559Z 00000KT 03/M02 A3006 RMK A01 T00331023  RH  067%=      5-min Rain = 0

Page generated in 0.1433 seconds.